Observation data for Hackberry on 07/20/2019      Previous  Date  Next       Current Mesonet Observations  Soil Data  Daily Summary Page  Observations in Plain Language
KHA3 200500Z 16016KT 30/16 A2987 RMK A01 T03000164  RH  044%=      5-min Rain = 0
KHA3 200501Z 16015KT 30/16 A2987 RMK A01 T03000164  RH  044%=      5-min Rain = 0
KHA3 200502Z 16015KT 30/16 A2987 RMK A01 T03000164  RH  044%=      5-min Rain = 0
KHA3 200503Z 16017KT 30/16 A2987 RMK A01 T03000164  RH  044%=      5-min Rain = 0
KHA3 200504Z 16014KT 30/16 A2987 RMK A01 T03010164  RH  044%=      5-min Rain = 0
KHA3 200505Z 16014KT 30/16 A2987 RMK A01 T03000164  RH  044%=      5-min Rain = 0
KHA3 200506Z 16014KT 30/16 A2987 RMK A01 T03000164  RH  044%=      5-min Rain = 0
KHA3 200507Z 16015KT 30/16 A2987 RMK A01 T02990164  RH  044%=      5-min Rain = 0
KHA3 200508Z 16015KT 30/17 A2987 RMK A01 T02990165  RH  044%=      5-min Rain = 0
KHA3 200509Z 16015KT 30/17 A2987 RMK A01 T02990165  RH  044%=      5-min Rain = 0
KHA3 200510Z 17014KT 30/17 A2987 RMK A01 T02990165  RH  044%=      5-min Rain = 0
KHA3 200511Z 16015KT 30/17 A2987 RMK A01 T02990165  RH  045%=      5-min Rain = 0
KHA3 200512Z 16014KT 30/17 A2987 RMK A01 T02990165  RH  045%=      5-min Rain = 0
KHA3 200513Z 17015KT 30/17 A2987 RMK A01 T02980165  RH  045%=      5-min Rain = 0
KHA3 200514Z 16014KT 30/17 A2987 RMK A01 T02980165  RH  045%=      5-min Rain = 0
KHA3 200515Z 16013KT 30/17 A2987 RMK A01 T02980165  RH  045%=      5-min Rain = 0
KHA3 200516Z 16014KT 30/17 A2987 RMK A01 T02970165  RH  045%=      5-min Rain = 0
KHA3 200517Z 16012KT 30/17 A2987 RMK A01 T02970166  RH  045%=      5-min Rain = 0
KHA3 200518Z 17014G19KT 30/17 A2987 RMK A01 T02960166  RH  045%=      5-min Rain = 0
KHA3 200519Z 16015KT 30/17 A2987 RMK A01 T02960166  RH  045%=      5-min Rain = 0
KHA3 200520Z 16015KT 30/17 A2987 RMK A01 T02960165  RH  045%=      5-min Rain = 0
KHA3 200521Z 17014G19KT 30/17 A2987 RMK A01 T02960166  RH  045%=      5-min Rain = 0
KHA3 200522Z 17016KT 30/17 A2987 RMK A01 T02960166  RH  045%=      5-min Rain = 0
KHA3 200523Z 17016KT 30/17 A2987 RMK A01 T02960166  RH  045%=      5-min Rain = 0
KHA3 200524Z 17015KT 30/17 A2987 RMK A01 T02970166  RH  045%=      5-min Rain = 0
KHA3 200525Z 17016KT 30/17 A2987 RMK A01 T02970166  RH  045%=      5-min Rain = 0
KHA3 200526Z 17015KT 30/17 A2987 RMK A01 T02960166  RH  046%=      5-min Rain = 0
KHA3 200527Z 17015KT 30/17 A2987 RMK A01 T02960167  RH  046%=      5-min Rain = 0
KHA3 200528Z 17015KT 30/17 A2987 RMK A01 T02960167  RH  046%=      5-min Rain = 0
KHA3 200529Z 17015KT 30/17 A2987 RMK A01 T02960167  RH  046%=      5-min Rain = 0
KHA3 200530Z 17013KT 30/17 A2987 RMK A01 T02960167  RH  046%=      5-min Rain = 0
KHA3 200531Z 17014KT 30/17 A2987 RMK A01 T02950167  RH  046%=      5-min Rain = 0
KHA3 200532Z 17015KT 30/17 A2987 RMK A01 T02950167  RH  046%=      5-min Rain = 0
KHA3 200533Z 17015KT 30/17 A2987 RMK A01 T02950167  RH  046%=      5-min Rain = 0
KHA3 200534Z 17014KT 30/17 A2987 RMK A01 T02950168  RH  046%=      5-min Rain = 0
KHA3 200535Z 17015KT 30/17 A2987 RMK A01 T02950168  RH  046%=      5-min Rain = 0
KHA3 200536Z 17017KT 30/17 A2987 RMK A01 T02950168  RH  046%=      5-min Rain = 0
KHA3 200537Z 17016KT 30/17 A2987 RMK A01 T02950168  RH  046%=      5-min Rain = 0
KHA3 200538Z 17015KT 30/17 A2987 RMK A01 T02950168  RH  046%=      5-min Rain = 0
KHA3 200539Z 17015KT 30/17 A2987 RMK A01 T02950168  RH  046%=      5-min Rain = 0
KHA3 200540Z 17017KT 30/17 A2987 RMK A01 T02950169  RH  046%=      5-min Rain = 0
KHA3 200541Z 17014KT 30/17 A2987 RMK A01 T02950169  RH  046%=      5-min Rain = 0
KHA3 200542Z 17014KT 30/17 A2987 RMK A01 T02950169  RH  047%=      5-min Rain = 0
KHA3 200543Z 17016KT 30/17 A2987 RMK A01 T02950169  RH  047%=      5-min Rain = 0
KHA3 200544Z 17016G21KT 30/17 A2987 RMK A01 T02950170  RH  047%=      5-min Rain = 0
KHA3 200545Z 17017KT 30/17 A2987 RMK A01 T02950169  RH  047%=      5-min Rain = 0
KHA3 200546Z 17017KT 30/17 A2987 RMK A01 T02950169  RH  047%=      5-min Rain = 0
KHA3 200547Z 17017KT 30/17 A2987 RMK A01 T02950169  RH  047%=      5-min Rain = 0
KHA3 200548Z 17014KT 30/17 A2987 RMK A01 T02950170  RH  047%=      5-min Rain = 0
KHA3 200549Z 17014KT 30/17 A2987 RMK A01 T02950170  RH  047%=      5-min Rain = 0
KHA3 200550Z 18014KT 29/17 A2987 RMK A01 T02940170  RH  047%=      5-min Rain = 0
KHA3 200551Z 17017KT 30/17 A2987 RMK A01 T02950170  RH  047%=      5-min Rain = 0
KHA3 200552Z 17015KT 30/17 A2987 RMK A01 T02950170  RH  047%=      5-min Rain = 0
KHA3 200553Z 17015KT 30/17 A2987 RMK A01 T02950170  RH  047%=      5-min Rain = 0
KHA3 200554Z 17016KT 30/17 A2987 RMK A01 T02950170  RH  047%=      5-min Rain = 0
KHA3 200555Z 17016KT 30/17 A2987 RMK A01 T02950171  RH  047%=      5-min Rain = 0
KHA3 200556Z 17017KT 30/17 A2987 RMK A01 T02950171  RH  047%=      5-min Rain = 0
KHA3 200557Z 18016KT 30/17 A2986 RMK A01 T02950171  RH  047%=      5-min Rain = 0
KHA3 200558Z 18016KT 30/17 A2987 RMK A01 T02950171  RH  047%=      5-min Rain = 0
KHA3 200559Z 17014KT 30/17 A2987 RMK A01 T02950171  RH  047%=      5-min Rain = 0
KHA3 200600Z 17017KT 30/17 A2987 RMK A01 T02950171  RH  047%=      5-min Rain = 0
KHA3 200601Z 18016KT 30/17 A2987 RMK A01 T02950171  RH  047%=      5-min Rain = 0
KHA3 200602Z 17015KT 30/17 A2987 RMK A01 T02950171  RH  047%=      5-min Rain = 0
KHA3 200603Z 17016KT 30/17 A2987 RMK A01 T02950172  RH  047%=      5-min Rain = 0
KHA3 200604Z 18016KT 30/17 A2986 RMK A01 T02950172  RH  047%=      5-min Rain = 0
KHA3 200605Z 18017KT 30/17 A2986 RMK A01 T02950171  RH  047%=      5-min Rain = 0
KHA3 200606Z 17016KT 30/17 A2986 RMK A01 T02950172  RH  047%=      5-min Rain = 0
KHA3 200607Z 18015KT 30/17 A2986 RMK A01 T02950172  RH  047%=      5-min Rain = 0
KHA3 200608Z 17015KT 30/17 A2986 RMK A01 T02950172  RH  048%=      5-min Rain = 0
KHA3 200609Z 17016KT 29/17 A2986 RMK A01 T02940172  RH  048%=      5-min Rain = 0
KHA3 200610Z 17017KT 29/17 A2986 RMK A01 T02940173  RH  048%=      5-min Rain = 0
KHA3 200611Z 17015KT 29/17 A2986 RMK A01 T02940172  RH  048%=      5-min Rain = 0
KHA3 200612Z 18014KT 30/17 A2986 RMK A01 T02950173  RH  048%=      5-min Rain = 0
KHA3 200613Z 18015KT 29/17 A2986 RMK A01 T02940173  RH  048%=      5-min Rain = 0
KHA3 200614Z 18017KT 29/17 A2986 RMK A01 T02940173  RH  048%=      5-min Rain = 0
KHA3 200615Z 17015KT 29/17 A2986 RMK A01 T02940173  RH  048%=      5-min Rain = 0
KHA3 200616Z 17015KT 29/17 A2986 RMK A01 T02940173  RH  048%=      5-min Rain = 0
KHA3 200617Z 17016KT 29/17 A2986 RMK A01 T02940173  RH  048%=      5-min Rain = 0
KHA3 200618Z 18015KT 29/17 A2986 RMK A01 T02940174  RH  048%=      5-min Rain = 0
KHA3 200619Z 17014KT 29/17 A2987 RMK A01 T02940174  RH  048%=      5-min Rain = 0
KHA3 200620Z 17017KT 29/17 A2986 RMK A01 T02940174  RH  048%=      5-min Rain = 0
KHA3 200621Z 18016G21KT 29/17 A2986 RMK A01 T02940174  RH  048%=      5-min Rain = 0
KHA3 200622Z 18016KT 29/17 A2986 RMK A01 T02940174  RH  048%=      5-min Rain = 0
KHA3 200623Z 18015G20KT 29/17 A2986 RMK A01 T02940174  RH  048%=      5-min Rain = 0
KHA3 200624Z 18015KT 30/18 A2986 RMK A01 T02950175  RH  049%=      5-min Rain = 0
KHA3 200625Z 18016KT 29/18 A2986 RMK A01 T02940175  RH  049%=      5-min Rain = 0
KHA3 200626Z 18015KT 29/18 A2986 RMK A01 T02940175  RH  049%=      5-min Rain = 0
KHA3 200627Z 18015KT 29/18 A2986 RMK A01 T02940175  RH  049%=      5-min Rain = 0
KHA3 200628Z 18015KT 29/18 A2987 RMK A01 T02940175  RH  049%=      5-min Rain = 0
KHA3 200629Z 17015KT 29/18 A2987 RMK A01 T02940175  RH  049%=      5-min Rain = 0
KHA3 200630Z 18016KT 29/18 A2987 RMK A01 T02940175  RH  049%=      5-min Rain = 0
KHA3 200631Z 18014KT 29/18 A2987 RMK A01 T02940176  RH  049%=      5-min Rain = 0
KHA3 200632Z 17015KT 29/18 A2987 RMK A01 T02930175  RH  049%=      5-min Rain = 0
KHA3 200633Z 18014KT 29/18 A2987 RMK A01 T02930176  RH  049%=      5-min Rain = 0
KHA3 200634Z 18013KT 29/18 A2987 RMK A01 T02920176  RH  049%=      5-min Rain = 0
KHA3 200635Z 18013KT 29/18 A2987 RMK A01 T02920176  RH  050%=      5-min Rain = 0
KHA3 200636Z 18015KT 29/18 A2987 RMK A01 T02920176  RH  050%=      5-min Rain = 0
KHA3 200637Z 18016KT 29/18 A2987 RMK A01 T02920176  RH  050%=      5-min Rain = 0
KHA3 200638Z 18015KT 29/18 A2987 RMK A01 T02920175  RH  050%=      5-min Rain = 0
KHA3 200639Z 18014KT 29/18 A2987 RMK A01 T02920176  RH  050%=      5-min Rain = 0
KHA3 200640Z 18015KT 29/18 A2987 RMK A01 T02920176  RH  050%=      5-min Rain = 0
KHA3 200641Z 18015KT 29/18 A2987 RMK A01 T02920176  RH  050%=      5-min Rain = 0
KHA3 200642Z 18012KT 29/18 A2987 RMK A01 T02920176  RH  050%=      5-min Rain = 0
KHA3 200643Z 18015KT 29/18 A2987 RMK A01 T02910177  RH  050%=      5-min Rain = 0
KHA3 200644Z 18015KT 29/18 A2987 RMK A01 T02900176  RH  050%=      5-min Rain = 0
KHA3 200645Z 18013KT 29/18 A2987 RMK A01 T02910177  RH  050%=      5-min Rain = 0
KHA3 200646Z 18015G20KT 29/18 A2987 RMK A01 T02910177  RH  050%=      5-min Rain = 0
KHA3 200647Z 18013KT 29/18 A2987 RMK A01 T02910178  RH  050%=      5-min Rain = 0
KHA3 200648Z 18015KT 29/18 A2987 RMK A01 T02900177  RH  051%=      5-min Rain = 0
KHA3 200649Z 18014KT 29/18 A2987 RMK A01 T02900177  RH  051%=      5-min Rain = 0
KHA3 200650Z 18013KT 29/18 A2987 RMK A01 T02900178  RH  051%=      5-min Rain = 0
KHA3 200651Z 18014KT 29/18 A2987 RMK A01 T02890177  RH  051%=      5-min Rain = 0
KHA3 200652Z 18014KT 29/18 A2987 RMK A01 T02890178  RH  051%=      5-min Rain = 0
KHA3 200653Z 18013KT 29/18 A2987 RMK A01 T02890177  RH  051%=      5-min Rain = 0
KHA3 200654Z 18015KT 29/18 A2987 RMK A01 T02890178  RH  051%=      5-min Rain = 0
KHA3 200655Z 18012KT 29/18 A2987 RMK A01 T02890178  RH  051%=      5-min Rain = 0
KHA3 200656Z 18013KT 29/18 A2987 RMK A01 T02890178  RH  051%=      5-min Rain = 0
KHA3 200657Z 18013KT 29/18 A2987 RMK A01 T02890178  RH  051%=      5-min Rain = 0
KHA3 200658Z 18013KT 29/18 A2987 RMK A01 T02880178  RH  051%=      5-min Rain = 0
KHA3 200659Z 18013KT 29/18 A2987 RMK A01 T02880178  RH  052%=      5-min Rain = 0
KHA3 200700Z 18013KT 29/18 A2987 RMK A01 T02870178  RH  052%=      5-min Rain = 0
KHA3 200701Z 18014KT 29/18 A2986 RMK A01 T02880178  RH  052%=      5-min Rain = 0
KHA3 200702Z 18014KT 29/18 A2986 RMK A01 T02880179  RH  052%=      5-min Rain = 0
KHA3 200703Z 18014KT 29/18 A2986 RMK A01 T02880179  RH  052%=      5-min Rain = 0
KHA3 200704Z 18014KT 29/18 A2986 RMK A01 T02880179  RH  052%=      5-min Rain = 0
KHA3 200705Z 18014KT 29/18 A2986 RMK A01 T02880179  RH  052%=      5-min Rain = 0
KHA3 200706Z 18014KT 29/18 A2986 RMK A01 T02880179  RH  052%=      5-min Rain = 0
KHA3 200707Z 18014KT 29/18 A2986 RMK A01 T02870179  RH  052%=      5-min Rain = 0
KHA3 200708Z 18013KT 29/18 A2986 RMK A01 T02870179  RH  052%=      5-min Rain = 0
KHA3 200709Z 18013KT 29/18 A2986 RMK A01 T02870179  RH  052%=      5-min Rain = 0
KHA3 200710Z 18012KT 29/18 A2986 RMK A01 T02870179  RH  052%=      5-min Rain = 0
KHA3 200711Z 18013KT 29/18 A2986 RMK A01 T02860180  RH  052%=      5-min Rain = 0
KHA3 200712Z 18014KT 29/18 A2986 RMK A01 T02860180  RH  053%=      5-min Rain = 0
KHA3 200713Z 18014KT 29/18 A2986 RMK A01 T02860179  RH  052%=      5-min Rain = 0
KHA3 200714Z 18014KT 29/18 A2986 RMK A01 T02860179  RH  052%=      5-min Rain = 0
KHA3 200715Z 18013KT 29/18 A2986 RMK A01 T02860180  RH  052%=      5-min Rain = 0
KHA3 200716Z 18012KT 29/18 A2986 RMK A01 T02860180  RH  053%=      5-min Rain = 0
KHA3 200717Z 18013KT 29/18 A2986 RMK A01 T02850180  RH  053%=      5-min Rain = 0
KHA3 200718Z 18015KT 29/18 A2986 RMK A01 T02850180  RH  053%=      5-min Rain = 0
KHA3 200719Z 18014KT 29/18 A2986 RMK A01 T02850180  RH  053%=      5-min Rain = 0
KHA3 200720Z 18014KT 29/18 A2986 RMK A01 T02860180  RH  053%=      5-min Rain = 0
KHA3 200721Z 18013KT 29/18 A2986 RMK A01 T02860180  RH  053%=      5-min Rain = 0
KHA3 200722Z 18014KT 29/18 A2986 RMK A01 T02850180  RH  053%=      5-min Rain = 0
KHA3 200723Z 18014KT 29/18 A2986 RMK A01 T02850180  RH  053%=      5-min Rain = 0
KHA3 200724Z 18012KT 29/18 A2986 RMK A01 T02850180  RH  053%=      5-min Rain = 0
KHA3 200725Z 18014KT 29/18 A2986 RMK A01 T02850181  RH  053%=      5-min Rain = 0
KHA3 200726Z 18014KT 29/18 A2986 RMK A01 T02850181  RH  053%=      5-min Rain = 0
KHA3 200727Z 18014KT 29/18 A2986 RMK A01 T02850180  RH  053%=      5-min Rain = 0
KHA3 200728Z 18014KT 29/18 A2986 RMK A01 T02850181  RH  053%=      5-min Rain = 0
KHA3 200729Z 19013KT 29/18 A2986 RMK A01 T02850181  RH  053%=      5-min Rain = 0
KHA3 200730Z 19014KT 28/18 A2986 RMK A01 T02840181  RH  053%=      5-min Rain = 0
KHA3 200731Z 18014KT 28/18 A2986 RMK A01 T02840181  RH  053%=      5-min Rain = 0
KHA3 200732Z 19013KT 28/18 A2986 RMK A01 T02840181  RH  053%=      5-min Rain = 0
KHA3 200733Z 18013KT 28/18 A2986 RMK A01 T02840181  RH  054%=      5-min Rain = 0
KHA3 200734Z 18014KT 28/18 A2986 RMK A01 T02840181  RH  054%=      5-min Rain = 0
KHA3 200735Z 18014KT 28/18 A2986 RMK A01 T02840181  RH  054%=      5-min Rain = 0
KHA3 200736Z 18015KT 28/18 A2986 RMK A01 T02840181  RH  054%=      5-min Rain = 0
KHA3 200737Z 19014KT 28/18 A2986 RMK A01 T02840181  RH  054%=      5-min Rain = 0
KHA3 200738Z 18016KT 28/18 A2986 RMK A01 T02840181  RH  054%=      5-min Rain = 0
KHA3 200739Z 19015KT 29/18 A2986 RMK A01 T02850182  RH  054%=      5-min Rain = 0
KHA3 200740Z 18015KT 28/18 A2986 RMK A01 T02840182  RH  054%=      5-min Rain = 0
KHA3 200741Z 18015KT 29/18 A2986 RMK A01 T02850182  RH  054%=      5-min Rain = 0
KHA3 200742Z 18015KT 29/18 A2986 RMK A01 T02850182  RH  054%=      5-min Rain = 0
KHA3 200743Z 18016KT 29/18 A2986 RMK A01 T02850182  RH  054%=      5-min Rain = 0
KHA3 200744Z 19015KT 29/18 A2986 RMK A01 T02850182  RH  054%=      5-min Rain = 0
KHA3 200745Z 19015KT 28/18 A2986 RMK A01 T02840182  RH  054%=      5-min Rain = 0
KHA3 200746Z 19016KT 28/18 A2986 RMK A01 T02840182  RH  054%=      5-min Rain = 0
KHA3 200747Z 19016KT 28/18 A2986 RMK A01 T02840182  RH  054%=      5-min Rain = 0
KHA3 200748Z 19016KT 29/18 A2986 RMK A01 T02850182  RH  054%=      5-min Rain = 0
KHA3 200749Z 19017KT 29/18 A2986 RMK A01 T02850183  RH  054%=      5-min Rain = 0
KHA3 200750Z 19014KT 29/18 A2986 RMK A01 T02850183  RH  054%=      5-min Rain = 0
KHA3 200751Z 19018KT 29/18 A2986 RMK A01 T02850183  RH  054%=      5-min Rain = 0
KHA3 200752Z 18016KT 29/18 A2986 RMK A01 T02850183  RH  054%=      5-min Rain = 0
KHA3 200753Z 19015KT 28/18 A2986 RMK A01 T02840183  RH  054%=      5-min Rain = 0
KHA3 200754Z 19015KT 29/18 A2986 RMK A01 T02850183  RH  054%=      5-min Rain = 0
KHA3 200755Z 19014KT 28/18 A2986 RMK A01 T02830183  RH  055%=      5-min Rain = 0
KHA3 200756Z 19015KT 28/18 A2986 RMK A01 T02830183  RH  055%=      5-min Rain = 0
KHA3 200757Z 19015KT 28/18 A2986 RMK A01 T02830183  RH  055%=      5-min Rain = 0
KHA3 200758Z 19015KT 28/18 A2986 RMK A01 T02830183  RH  055%=      5-min Rain = 0
KHA3 200759Z 19016KT 28/18 A2986 RMK A01 T02830184  RH  055%=      5-min Rain = 0
KHA3 200800Z 18016KT 28/18 A2986 RMK A01 T02830183  RH  055%=      5-min Rain = 0
KHA3 200801Z 19017KT 28/18 A2986 RMK A01 T02830183  RH  055%=      5-min Rain = 0
KHA3 200802Z 19016KT 28/18 A2986 RMK A01 T02840184  RH  055%=      5-min Rain = 0
KHA3 200803Z 18016G22KT 28/18 A2986 RMK A01 T02830183  RH  055%=      5-min Rain = 0
KHA3 200804Z 19016KT 28/18 A2986 RMK A01 T02840184  RH  055%=      5-min Rain = 0
KHA3 200805Z 19015G20KT 28/18 A2986 RMK A01 T02830184  RH  055%=      5-min Rain = 0
KHA3 200806Z 18016KT 28/18 A2986 RMK A01 T02830184  RH  055%=      5-min Rain = 0
KHA3 200807Z 19017KT 28/18 A2985 RMK A01 T02830184  RH  055%=      5-min Rain = 0
KHA3 200808Z 19017KT 28/18 A2986 RMK A01 T02830184  RH  055%=      5-min Rain = 0
KHA3 200809Z 19016KT 28/18 A2985 RMK A01 T02830184  RH  055%=      5-min Rain = 0
KHA3 200810Z 18015KT 28/18 A2985 RMK A01 T02830184  RH  055%=      5-min Rain = 0
KHA3 200811Z 19016KT 28/18 A2985 RMK A01 T02830184  RH  055%=      5-min Rain = 0
KHA3 200812Z 18015KT 28/18 A2985 RMK A01 T02820184  RH  055%=      5-min Rain = 0
KHA3 200813Z 19015KT 28/18 A2985 RMK A01 T02820184  RH  055%=      5-min Rain = 0
KHA3 200814Z 19015KT 28/18 A2985 RMK A01 T02820184  RH  055%=      5-min Rain = 0
KHA3 200815Z 19017KT 28/18 A2985 RMK A01 T02820184  RH  055%=      5-min Rain = 0
KHA3 200816Z 19016KT 28/18 A2985 RMK A01 T02820184  RH  056%=      5-min Rain = 0
KHA3 200817Z 18016KT 28/18 A2985 RMK A01 T02820184  RH  055%=      5-min Rain = 0
KHA3 200818Z 18015KT 28/18 A2985 RMK A01 T02820184  RH  056%=      5-min Rain = 0
KHA3 200819Z 19015KT 28/19 A2985 RMK A01 T02820185  RH  056%=      5-min Rain = 0
KHA3 200820Z 19015KT 28/19 A2986 RMK A01 T02810185  RH  056%=      5-min Rain = 0
KHA3 200821Z 19016KT 28/19 A2986 RMK A01 T02800185  RH  056%=      5-min Rain = 0
KHA3 200822Z 19015KT 28/19 A2986 RMK A01 T02800185  RH  056%=      5-min Rain = 0
KHA3 200823Z 19016KT 28/19 A2986 RMK A01 T02800185  RH  056%=      5-min Rain = 0
KHA3 200824Z 18015KT 28/19 A2986 RMK A01 T02800185  RH  056%=      5-min Rain = 0
KHA3 200825Z 19017KT 28/19 A2986 RMK A01 T02800185  RH  056%=      5-min Rain = 0
KHA3 200826Z 18016KT 28/19 A2986 RMK A01 T02800185  RH  056%=      5-min Rain = 0
KHA3 200827Z 18015KT 28/19 A2986 RMK A01 T02800185  RH  056%=      5-min Rain = 0
KHA3 200828Z 18016KT 28/19 A2986 RMK A01 T02800185  RH  056%=      5-min Rain = 0
KHA3 200829Z 19017KT 28/19 A2986 RMK A01 T02800185  RH  056%=      5-min Rain = 0
KHA3 200830Z 19016KT 28/19 A2986 RMK A01 T02800185  RH  056%=      5-min Rain = 0
KHA3 200831Z 19016KT 28/19 A2986 RMK A01 T02800185  RH  056%=      5-min Rain = 0
KHA3 200832Z 19015KT 28/19 A2986 RMK A01 T02790185  RH  056%=      5-min Rain = 0
KHA3 200833Z 19015KT 28/19 A2986 RMK A01 T02790185  RH  057%=      5-min Rain = 0
KHA3 200834Z 19014KT 28/19 A2986 RMK A01 T02780185  RH  057%=      5-min Rain = 0
KHA3 200835Z 19016KT 28/19 A2986 RMK A01 T02780185  RH  057%=      5-min Rain = 0
KHA3 200836Z 19016KT 28/19 A2986 RMK A01 T02780185  RH  057%=      5-min Rain = 0
KHA3 200837Z 19017KT 28/18 A2986 RMK A01 T02780184  RH  057%=      5-min Rain = 0
KHA3 200838Z 19015KT 28/18 A2986 RMK A01 T02780184  RH  057%=      5-min Rain = 0
KHA3 200839Z 19015G20KT 28/19 A2986 RMK A01 T02780185  RH  057%=      5-min Rain = 0
KHA3 200840Z 19017KT 28/19 A2986 RMK A01 T02780185  RH  057%=      5-min Rain = 0
KHA3 200841Z 19015KT 28/19 A2986 RMK A01 T02780185  RH  057%=      5-min Rain = 0
KHA3 200842Z 19014KT 28/19 A2986 RMK A01 T02780185  RH  057%=      5-min Rain = 0
KHA3 200843Z 19015KT 28/19 A2986 RMK A01 T02770185  RH  057%=      5-min Rain = 0
KHA3 200844Z 19015KT 28/19 A2986 RMK A01 T02770185  RH  057%=      5-min Rain = 0
KHA3 200845Z 19013KT 28/19 A2986 RMK A01 T02760185  RH  057%=      5-min Rain = 0
KHA3 200846Z 19014KT 28/19 A2986 RMK A01 T02760185  RH  058%=      5-min Rain = 0
KHA3 200847Z 19015KT 28/19 A2986 RMK A01 T02750185  RH  058%=      5-min Rain = 0
KHA3 200848Z 19014KT 28/19 A2986 RMK A01 T02750185  RH  058%=      5-min Rain = 0
KHA3 200849Z 19014KT 28/19 A2986 RMK A01 T02750185  RH  058%=      5-min Rain = 0
KHA3 200850Z 19014KT 28/19 A2986 RMK A01 T02750185  RH  058%=      5-min Rain = 0
KHA3 200851Z 19015KT 28/19 A2986 RMK A01 T02750185  RH  058%=      5-min Rain = 0
KHA3 200852Z 19014KT 28/19 A2986 RMK A01 T02750185  RH  058%=      5-min Rain = 0
KHA3 200853Z 19016KT 28/19 A2986 RMK A01 T02750185  RH  058%=      5-min Rain = 0
KHA3 200854Z 19016KT 28/19 A2986 RMK A01 T02750185  RH  058%=      5-min Rain = 0
KHA3 200855Z 19015KT 28/19 A2986 RMK A01 T02750185  RH  058%=      5-min Rain = 0
KHA3 200856Z 19015KT 28/19 A2986 RMK A01 T02750185  RH  058%=      5-min Rain = 0
KHA3 200857Z 19016KT 28/19 A2986 RMK A01 T02750185  RH  058%=      5-min Rain = 0
KHA3 200858Z 19014KT 28/19 A2986 RMK A01 T02750185  RH  058%=      5-min Rain = 0
KHA3 200859Z 19013KT 28/19 A2986 RMK A01 T02750185  RH  058%=      5-min Rain = 0
KHA3 200900Z 19016KT 27/19 A2986 RMK A01 T02740185  RH  058%=      5-min Rain = 0
KHA3 200901Z 19015KT 27/19 A2986 RMK A01 T02740185  RH  058%=      5-min Rain = 0
KHA3 200902Z 19015KT 28/19 A2986 RMK A01 T02750185  RH  058%=      5-min Rain = 0
KHA3 200903Z 19014KT 28/19 A2986 RMK A01 T02750185  RH  058%=      5-min Rain = 0
KHA3 200904Z 19015KT 27/19 A2986 RMK A01 T02740185  RH  058%=      5-min Rain = 0
KHA3 200905Z 20014KT 27/19 A2986 RMK A01 T02740185  RH  058%=      5-min Rain = 0
KHA3 200906Z 20014KT 27/19 A2986 RMK A01 T02740185  RH  058%=      5-min Rain = 0
KHA3 200907Z 19014KT 27/19 A2986 RMK A01 T02730185  RH  059%=      5-min Rain = 0
KHA3 200908Z 20014KT 27/19 A2986 RMK A01 T02730185  RH  059%=      5-min Rain = 0
KHA3 200909Z 20013KT 27/19 A2987 RMK A01 T02740185  RH  058%=      5-min Rain = 0
KHA3 200910Z 20013KT 27/19 A2987 RMK A01 T02740185  RH  059%=      5-min Rain = 0
KHA3 200911Z 20012KT 27/19 A2987 RMK A01 T02730185  RH  059%=      5-min Rain = 0
KHA3 200912Z 20013KT 27/19 A2987 RMK A01 T02720185  RH  059%=      5-min Rain = 0
KHA3 200913Z 20014KT 27/19 A2987 RMK A01 T02720186  RH  059%=      5-min Rain = 0
KHA3 200914Z 20016KT 27/19 A2987 RMK A01 T02730186  RH  059%=      5-min Rain = 0
KHA3 200915Z 20014KT 27/19 A2987 RMK A01 T02740186  RH  059%=      5-min Rain = 0
KHA3 200916Z 20014KT 27/19 A2987 RMK A01 T02740186  RH  059%=      5-min Rain = 0
KHA3 200917Z 20013KT 27/19 A2987 RMK A01 T02730186  RH  059%=      5-min Rain = 0
KHA3 200918Z 20015KT 27/19 A2987 RMK A01 T02730186  RH  059%=      5-min Rain = 0
KHA3 200919Z 20014KT 27/19 A2987 RMK A01 T02730186  RH  059%=      5-min Rain = 0
KHA3 200920Z 19014KT 27/19 A2987 RMK A01 T02730186  RH  059%=      5-min Rain = 0
KHA3 200921Z 20015KT 27/19 A2987 RMK A01 T02730186  RH  059%=      5-min Rain = 0
KHA3 200922Z 20015KT 27/19 A2986 RMK A01 T02730186  RH  059%=      5-min Rain = 0
KHA3 200923Z 20014KT 27/19 A2986 RMK A01 T02730186  RH  059%=      5-min Rain = 0
KHA3 200924Z 20013KT 27/19 A2986 RMK A01 T02730187  RH  059%=      5-min Rain = 0
KHA3 200925Z 19013KT 27/19 A2986 RMK A01 T02730187  RH  059%=      5-min Rain = 0
KHA3 200926Z 20014KT 27/19 A2986 RMK A01 T02720187  RH  060%=      5-min Rain = 0
KHA3 200927Z 20015KT 27/19 A2986 RMK A01 T02730187  RH  060%=      5-min Rain = 0
KHA3 200928Z 20015KT 27/19 A2986 RMK A01 T02730187  RH  059%=      5-min Rain = 0
KHA3 200929Z 20014KT 27/19 A2986 RMK A01 T02730187  RH  059%=      5-min Rain = 0
KHA3 200930Z 20015KT 27/19 A2986 RMK A01 T02730187  RH  059%=      5-min Rain = 0
KHA3 200931Z 20014KT 27/19 A2986 RMK A01 T02730187  RH  059%=      5-min Rain = 0
KHA3 200932Z 20015KT 27/19 A2986 RMK A01 T02730187  RH  059%=      5-min Rain = 0
KHA3 200933Z 20017KT 27/19 A2986 RMK A01 T02730187  RH  060%=      5-min Rain = 0
KHA3 200934Z 20015KT 27/19 A2986 RMK A01 T02740188  RH  059%=      5-min Rain = 0
KHA3 200935Z 20014KT 27/19 A2986 RMK A01 T02740188  RH  059%=      5-min Rain = 0
KHA3 200936Z 20016KT 27/19 A2986 RMK A01 T02730188  RH  060%=      5-min Rain = 0
KHA3 200937Z 20016KT 27/19 A2986 RMK A01 T02730188  RH  060%=      5-min Rain = 0
KHA3 200938Z 20015KT 27/19 A2986 RMK A01 T02730188  RH  060%=      5-min Rain = 0
KHA3 200939Z 20016KT 27/19 A2986 RMK A01 T02740189  RH  060%=      5-min Rain = 0
KHA3 200940Z 19017KT 27/19 A2986 RMK A01 T02730188  RH  060%=      5-min Rain = 0
KHA3 200941Z 20015G20KT 27/19 A2986 RMK A01 T02730188  RH  060%=      5-min Rain = 0
KHA3 200942Z 20015KT 27/19 A2986 RMK A01 T02740189  RH  060%=      5-min Rain = 0
KHA3 200943Z 20015KT 27/19 A2986 RMK A01 T02730189  RH  060%=      5-min Rain = 0
KHA3 200944Z 20016KT 27/19 A2986 RMK A01 T02730189  RH  060%=      5-min Rain = 0
KHA3 200945Z 19017KT 27/19 A2986 RMK A01 T02720189  RH  060%=      5-min Rain = 0
KHA3 200946Z 19018KT 27/19 A2986 RMK A01 T02720189  RH  060%=      5-min Rain = 0
KHA3 200947Z 20017KT 27/19 A2986 RMK A01 T02730189  RH  060%=      5-min Rain = 0
KHA3 200948Z 19015KT 27/19 A2986 RMK A01 T02740189  RH  060%=      5-min Rain = 0
KHA3 200949Z 20018KT 27/19 A2986 RMK A01 T02730189  RH  060%=      5-min Rain = 0
KHA3 200950Z 19018KT 27/19 A2986 RMK A01 T02730189  RH  060%=      5-min Rain = 0
KHA3 200951Z 20017KT 27/19 A2986 RMK A01 T02730189  RH  060%=      5-min Rain = 0
KHA3 200952Z 19017KT 27/19 A2986 RMK A01 T02740189  RH  060%=      5-min Rain = 0
KHA3 200953Z 20016KT 27/19 A2986 RMK A01 T02740190  RH  060%=      5-min Rain = 0
KHA3 200954Z 19017KT 27/19 A2986 RMK A01 T02740190  RH  060%=      5-min Rain = 0
KHA3 200955Z 20017KT 27/19 A2986 RMK A01 T02730190  RH  060%=      5-min Rain = 0
KHA3 200956Z 19016KT 27/19 A2986 RMK A01 T02730190  RH  060%=      5-min Rain = 0
KHA3 200957Z 19018KT 27/19 A2986 RMK A01 T02730190  RH  060%=      5-min Rain = 0
KHA3 200958Z 20017KT 27/19 A2986 RMK A01 T02740190  RH  060%=      5-min Rain = 0
KHA3 200959Z 19018KT 27/19 A2986 RMK A01 T02740191  RH  060%=      5-min Rain = 0
KHA3 201000Z 19016KT 27/19 A2986 RMK A01 T02740191  RH  060%=      5-min Rain = 0
KHA3 201001Z 20016G21KT 27/19 A2986 RMK A01 T02740191  RH  060%=      5-min Rain = 0
KHA3 201002Z 20018KT 27/19 A2986 RMK A01 T02740191  RH  061%=      5-min Rain = 0
KHA3 201003Z 20018KT 27/19 A2986 RMK A01 T02740191  RH  061%=      5-min Rain = 0
KHA3 201004Z 20017KT 27/19 A2986 RMK A01 T02740191  RH  061%=      5-min Rain = 0
KHA3 201005Z 20017KT 27/19 A2986 RMK A01 T02740191  RH  061%=      5-min Rain = 0
KHA3 201006Z 20016KT 27/19 A2986 RMK A01 T02730191  RH  061%=      5-min Rain = 0
KHA3 201007Z 20018KT 27/19 A2986 RMK A01 T02730191  RH  061%=      5-min Rain = 0
KHA3 201008Z 20018KT 27/19 A2986 RMK A01 T02730191  RH  061%=      5-min Rain = 0
KHA3 201009Z 20017KT 27/19 A2987 RMK A01 T02740191  RH  061%=      5-min Rain = 0
KHA3 201010Z 20018KT 27/19 A2987 RMK A01 T02730191  RH  061%=      5-min Rain = 0
KHA3 201011Z 20014KT 27/19 A2987 RMK A01 T02730191  RH  061%=      5-min Rain = 0
KHA3 201012Z 20018KT 27/19 A2987 RMK A01 T02720191  RH  061%=      5-min Rain = 0
KHA3 201013Z 20018KT 27/19 A2987 RMK A01 T02720192  RH  061%=      5-min Rain = 0
KHA3 201014Z 20015G20KT 27/19 A2987 RMK A01 T02730192  RH  061%=      5-min Rain = 0
KHA3 201015Z 20017G23KT 27/19 A2987 RMK A01 T02730192  RH  061%=      5-min Rain = 0
KHA3 201016Z 20017KT 27/19 A2986 RMK A01 T02720191  RH  061%=      5-min Rain = 0
KHA3 201017Z 20016KT 27/19 A2987 RMK A01 T02720192  RH  061%=      5-min Rain = 0
KHA3 201018Z 20016KT 27/19 A2986 RMK A01 T02720192  RH  062%=      5-min Rain = 0
KHA3 201019Z 20016KT 27/19 A2987 RMK A01 T02720192  RH  062%=      5-min Rain = 0
KHA3 201020Z 19017KT 27/19 A2987 RMK A01 T02720192  RH  062%=      5-min Rain = 0
KHA3 201021Z 20018KT 27/19 A2987 RMK A01 T02720192  RH  062%=      5-min Rain = 0
KHA3 201022Z 20017KT 27/19 A2987 RMK A01 T02710192  RH  062%=      5-min Rain = 0
KHA3 201023Z 19016KT 27/19 A2987 RMK A01 T02710192  RH  062%=      5-min Rain = 0
KHA3 201024Z 20015KT 27/19 A2987 RMK A01 T02710192  RH  062%=      5-min Rain = 0
KHA3 201025Z 19017KT 27/19 A2987 RMK A01 T02700192  RH  062%=      5-min Rain = 0
KHA3 201026Z 19017KT 27/19 A2987 RMK A01 T02700192  RH  062%=      5-min Rain = 0
KHA3 201027Z 20016KT 27/19 A2987 RMK A01 T02710193  RH  062%=      5-min Rain = 0
KHA3 201028Z 19017KT 27/19 A2987 RMK A01 T02710193  RH  062%=      5-min Rain = 0
KHA3 201029Z 19018KT 27/19 A2987 RMK A01 T02710193  RH  062%=      5-min Rain = 0
KHA3 201030Z 20015KT 27/19 A2987 RMK A01 T02710193  RH  062%=      5-min Rain = 0
KHA3 201031Z 20015KT 27/19 A2987 RMK A01 T02710193  RH  063%=      5-min Rain = 0
KHA3 201032Z 19016KT 27/19 A2987 RMK A01 T02700193  RH  063%=      5-min Rain = 0
KHA3 201033Z 19014KT 27/19 A2987 RMK A01 T02700193  RH  063%=      5-min Rain = 0
KHA3 201034Z 20019KT 27/19 A2987 RMK A01 T02690193  RH  063%=      5-min Rain = 0
KHA3 201035Z 19017KT 27/19 A2987 RMK A01 T02690193  RH  063%=      5-min Rain = 0
KHA3 201036Z 20017KT 27/19 A2987 RMK A01 T02700194  RH  063%=      5-min Rain = 0
KHA3 201037Z 19016KT 27/19 A2987 RMK A01 T02690193  RH  063%=      5-min Rain = 0
KHA3 201038Z 20016KT 27/19 A2987 RMK A01 T02700194  RH  063%=      5-min Rain = 0
KHA3 201039Z 19016KT 27/19 A2987 RMK A01 T02690194  RH  063%=      5-min Rain = 0
KHA3 201040Z 19017KT 27/19 A2987 RMK A01 T02690194  RH  063%=      5-min Rain = 0
KHA3 201041Z 20018KT 27/19 A2987 RMK A01 T02690194  RH  063%=      5-min Rain = 0
KHA3 201042Z 20015KT 27/19 A2987 RMK A01 T02690194  RH  063%=      5-min Rain = 0
KHA3 201043Z 19015KT 27/19 A2987 RMK A01 T02690194  RH  064%=      5-min Rain = 0
KHA3 201044Z 20015KT 27/19 A2987 RMK A01 T02690194  RH  064%=      5-min Rain = 0
KHA3 201045Z 20016KT 27/20 A2987 RMK A01 T02680195  RH  064%=      5-min Rain = 0
KHA3 201046Z 20017KT 27/20 A2987 RMK A01 T02680195  RH  064%=      5-min Rain = 0
KHA3 201047Z 19015KT 27/19 A2987 RMK A01 T02680194  RH  064%=      5-min Rain = 0
KHA3 201048Z 20016KT 27/20 A2987 RMK A01 T02680195  RH  064%=      5-min Rain = 0
KHA3 201049Z 20017KT 27/20 A2987 RMK A01 T02680195  RH  064%=      5-min Rain = 0
KHA3 201050Z 20017KT 27/20 A2987 RMK A01 T02680195  RH  064%=      5-min Rain = 0
KHA3 201051Z 20017KT 27/20 A2987 RMK A01 T02680195  RH  064%=      5-min Rain = 0
KHA3 201052Z 19017KT 27/20 A2987 RMK A01 T02680195  RH  064%=      5-min Rain = 0
KHA3 201053Z 19016KT 27/20 A2987 RMK A01 T02680195  RH  064%=      5-min Rain = 0
KHA3 201054Z 20015KT 27/20 A2987 RMK A01 T02680195  RH  064%=      5-min Rain = 0
KHA3 201055Z 20016KT 27/20 A2987 RMK A01 T02680196  RH  065%=      5-min Rain = 0
KHA3 201056Z 19016KT 27/20 A2987 RMK A01 T02670196  RH  065%=      5-min Rain = 0
KHA3 201057Z 19018G23KT 27/20 A2987 RMK A01 T02670196  RH  065%=      5-min Rain = 0
KHA3 201058Z 20016G21KT 27/20 A2987 RMK A01 T02670196  RH  065%=      5-min Rain = 0
KHA3 201059Z 19017KT 27/20 A2987 RMK A01 T02680196  RH  065%=      5-min Rain = 0
KHA3 201100Z 19017KT 27/20 A2987 RMK A01 T02680197  RH  065%=      5-min Rain = 0
KHA3 201101Z 19016KT 27/20 A2987 RMK A01 T02670196  RH  065%=      5-min Rain = 0
KHA3 201102Z 19016KT 27/20 A2988 RMK A01 T02670197  RH  065%=      5-min Rain = 0
KHA3 201103Z 19014KT 27/20 A2988 RMK A01 T02660196  RH  066%=      5-min Rain = 0
KHA3 201104Z 19016KT 27/20 A2988 RMK A01 T02650197  RH  066%=      5-min Rain = 0
KHA3 201105Z 19016KT 27/20 A2988 RMK A01 T02650197  RH  066%=      5-min Rain = 0
KHA3 201106Z 20015G20KT 27/20 A2988 RMK A01 T02660197  RH  066%=      5-min Rain = 0
KHA3 201107Z 20014KT 27/20 A2988 RMK A01 T02660197  RH  066%=      5-min Rain = 0
KHA3 201108Z 19016KT 27/20 A2988 RMK A01 T02650197  RH  066%=      5-min Rain = 0
KHA3 201109Z 19015KT 27/20 A2988 RMK A01 T02650197  RH  066%=      5-min Rain = 0
KHA3 201110Z 19015KT 27/20 A2988 RMK A01 T02650197  RH  067%=      5-min Rain = 0
KHA3 201111Z 20016KT 27/20 A2988 RMK A01 T02650198  RH  067%=      5-min Rain = 0
KHA3 201112Z 20015KT 26/20 A2988 RMK A01 T02640197  RH  067%=      5-min Rain = 0
KHA3 201113Z 19017KT 27/20 A2988 RMK A01 T02650197  RH  066%=      5-min Rain = 0
KHA3 201114Z 19015KT 27/20 A2988 RMK A01 T02650197  RH  066%=      5-min Rain = 0
KHA3 201115Z 19016KT 27/20 A2988 RMK A01 T02650198  RH  066%=      5-min Rain = 0
KHA3 201116Z 20014KT 27/20 A2988 RMK A01 T02650198  RH  067%=      5-min Rain = 0
KHA3 201117Z 19015KT 27/20 A2988 RMK A01 T02650198  RH  067%=      5-min Rain = 0
KHA3 201118Z 19014KT 26/20 A2988 RMK A01 T02640198  RH  067%=      5-min Rain = 0
KHA3 201119Z 19016KT 26/20 A2988 RMK A01 T02640198  RH  067%=      5-min Rain = 0
KHA3 201120Z 19017KT 26/20 A2988 RMK A01 T02640199  RH  067%=      5-min Rain = 0
KHA3 201121Z 19015KT 26/20 A2988 RMK A01 T02640198  RH  067%=      5-min Rain = 0
KHA3 201122Z 20016KT 26/20 A2988 RMK A01 T02640199  RH  067%=      5-min Rain = 0
KHA3 201123Z 19015KT 26/20 A2988 RMK A01 T02640199  RH  067%=      5-min Rain = 0
KHA3 201124Z 19016KT 26/20 A2988 RMK A01 T02640199  RH  068%=      5-min Rain = 0
KHA3 201125Z 19016KT 26/20 A2988 RMK A01 T02640199  RH  068%=      5-min Rain = 0
KHA3 201126Z 19015KT 26/20 A2988 RMK A01 T02640199  RH  068%=      5-min Rain = 0
KHA3 201127Z 19013KT 26/20 A2988 RMK A01 T02630199  RH  068%=      5-min Rain = 0
KHA3 201128Z 20014KT 26/20 A2989 RMK A01 T02630199  RH  068%=      5-min Rain = 0
KHA3 201129Z 19014KT 26/20 A2989 RMK A01 T02620199  RH  068%=      5-min Rain = 0
KHA3 201130Z 19015KT 26/20 A2989 RMK A01 T02620199  RH  068%=      5-min Rain = 0
KHA3 201131Z 19014KT 26/20 A2989 RMK A01 T02620199  RH  068%=      5-min Rain = 0
KHA3 201132Z 20015KT 26/20 A2989 RMK A01 T02620200  RH  068%=      5-min Rain = 0
KHA3 201133Z 20016KT 26/20 A2989 RMK A01 T02620199  RH  069%=      5-min Rain = 0
KHA3 201134Z 19014KT 26/20 A2989 RMK A01 T02610199  RH  069%=      5-min Rain = 0
KHA3 201135Z 19015KT 26/20 A2989 RMK A01 T02610199  RH  069%=      5-min Rain = 0
KHA3 201136Z 19015KT 26/20 A2989 RMK A01 T02610199  RH  069%=      5-min Rain = 0
KHA3 201137Z 20015KT 26/20 A2989 RMK A01 T02610199  RH  069%=      5-min Rain = 0
KHA3 201138Z 19015KT 26/20 A2989 RMK A01 T02610200  RH  069%=      5-min Rain = 0
KHA3 201139Z 19016KT 26/20 A2989 RMK A01 T02610200  RH  069%=      5-min Rain = 0
KHA3 201140Z 20015KT 26/20 A2989 RMK A01 T02610200  RH  069%=      5-min Rain = 0
KHA3 201141Z 19014KT 26/20 A2989 RMK A01 T02610200  RH  069%=      5-min Rain = 0
KHA3 201142Z 19013KT 26/20 A2989 RMK A01 T02610200  RH  069%=      5-min Rain = 0
KHA3 201143Z 19014KT 26/20 A2989 RMK A01 T02600200  RH  069%=      5-min Rain = 0
KHA3 201144Z 19014KT 26/20 A2989 RMK A01 T02600200  RH  070%=      5-min Rain = 0
KHA3 201145Z 19016KT 26/20 A2989 RMK A01 T02600200  RH  070%=      5-min Rain = 0
KHA3 201146Z 20014KT 26/20 A2989 RMK A01 T02600200  RH  069%=      5-min Rain = 0
KHA3 201147Z 19014KT 26/20 A2989 RMK A01 T02600200  RH  069%=      5-min Rain = 0
KHA3 201148Z 19014KT 26/20 A2989 RMK A01 T02600200  RH  070%=      5-min Rain = 0
KHA3 201149Z 19014KT 26/20 A2989 RMK A01 T02600200  RH  070%=      5-min Rain = 0
KHA3 201150Z 19015KT 26/20 A2989 RMK A01 T02600201  RH  070%=      5-min Rain = 0
KHA3 201151Z 19014KT 26/20 A2989 RMK A01 T02590200  RH  070%=      5-min Rain = 0
KHA3 201152Z 19015KT 26/20 A2989 RMK A01 T02600201  RH  070%=      5-min Rain = 0
KHA3 201153Z 19014KT 26/20 A2989 RMK A01 T02600201  RH  070%=      5-min Rain = 0
KHA3 201154Z 19015G21KT 26/20 A2989 RMK A01 T02600201  RH  070%=      5-min Rain = 0
KHA3 201155Z 19017KT 26/20 A2989 RMK A01 T02600201  RH  070%=      5-min Rain = 0
KHA3 201156Z 19015KT 26/20 A2989 RMK A01 T02590201  RH  070%=      5-min Rain = 0
KHA3 201157Z 19014KT 26/20 A2989 RMK A01 T02590201  RH  070%=      5-min Rain = 0
KHA3 201158Z 19015KT 26/20 A2989 RMK A01 T02590201  RH  070%=      5-min Rain = 0
KHA3 201159Z 19015KT 26/20 A2989 RMK A01 T02590201  RH  070%=      5-min Rain = 0
KHA3 201200Z 19015KT 26/20 A2989 RMK A01 T02590201  RH  071%=      5-min Rain = 0
KHA3 201201Z 19014KT 26/20 A2989 RMK A01 T02590201  RH  071%=      5-min Rain = 0
KHA3 201202Z 19015KT 26/20 A2989 RMK A01 T02580201  RH  071%=      5-min Rain = 0
KHA3 201203Z 19014KT 26/20 A2989 RMK A01 T02580202  RH  071%=      5-min Rain = 0
KHA3 201204Z 19014KT 26/20 A2989 RMK A01 T02580202  RH  071%=      5-min Rain = 0
KHA3 201205Z 19013KT 26/20 A2989 RMK A01 T02580202  RH  071%=      5-min Rain = 0
KHA3 201206Z 19014G19KT 26/20 A2989 RMK A01 T02580202  RH  071%=      5-min Rain = 0
KHA3 201207Z 19015KT 26/20 A2989 RMK A01 T02580201  RH  071%=      5-min Rain = 0
KHA3 201208Z 19015KT 26/20 A2989 RMK A01 T02590202  RH  071%=      5-min Rain = 0
KHA3 201209Z 19015KT 26/20 A2989 RMK A01 T02590202  RH  071%=      5-min Rain = 0
KHA3 201210Z 19015KT 26/20 A2989 RMK A01 T02590202  RH  071%=      5-min Rain = 0
KHA3 201211Z 19013KT 26/20 A2989 RMK A01 T02590202  RH  071%=      5-min Rain = 0
KHA3 201212Z 19015KT 26/20 A2989 RMK A01 T02590202  RH  071%=      5-min Rain = 0
KHA3 201213Z 19015KT 26/20 A2989 RMK A01 T02590202  RH  071%=      5-min Rain = 0
KHA3 201214Z 20015KT 26/20 A2989 RMK A01 T02590202  RH  071%=      5-min Rain = 0
KHA3 201215Z 19013KT 26/20 A2989 RMK A01 T02600202  RH  071%=      5-min Rain = 0
KHA3 201216Z 19014KT 26/20 A2989 RMK A01 T02600203  RH  071%=      5-min Rain = 0
KHA3 201217Z 19015KT 26/20 A2989 RMK A01 T02590203  RH  071%=      5-min Rain = 0
KHA3 201218Z 19015KT 26/20 A2989 RMK A01 T02590203  RH  071%=      5-min Rain = 0
KHA3 201219Z 19014KT 26/20 A2989 RMK A01 T02590203  RH  071%=      5-min Rain = 0
KHA3 201220Z 19013KT 26/20 A299 RMK A01 T02600203  RH  071%=      5-min Rain = 0
KHA3 201221Z 19014KT 26/20 A299 RMK A01 T02590203  RH  071%=      5-min Rain = 0
KHA3 201222Z 19014KT 26/20 A299 RMK A01 T02590204  RH  071%=      5-min Rain = 0
KHA3 201223Z 19013KT 26/20 A299 RMK A01 T02590203  RH  071%=      5-min Rain = 0
KHA3 201224Z 19017KT 26/20 A299 RMK A01 T02600203  RH  071%=      5-min Rain = 0
KHA3 201225Z 19015KT 26/20 A299 RMK A01 T02600203  RH  071%=      5-min Rain = 0
KHA3 201226Z 19013KT 26/20 A299 RMK A01 T02610204  RH  071%=      5-min Rain = 0
KHA3 201227Z 19012KT 26/20 A299 RMK A01 T02600204  RH  071%=      5-min Rain = 0
KHA3 201228Z 19014KT 26/20 A299 RMK A01 T02610204  RH  071%=      5-min Rain = 0
KHA3 201229Z 19015KT 26/20 A299 RMK A01 T02610204  RH  071%=      5-min Rain = 0
KHA3 201230Z 19016KT 26/20 A299 RMK A01 T02610204  RH  071%=      5-min Rain = 0
KHA3 201231Z 20014KT 26/20 A299 RMK A01 T02610204  RH  071%=      5-min Rain = 0
KHA3 201232Z 19016KT 26/20 A299 RMK A01 T02610204  RH  071%=      5-min Rain = 0
KHA3 201233Z 19016KT 26/20 A299 RMK A01 T02620204  RH  071%=      5-min Rain = 0
KHA3 201234Z 19014KT 26/20 A299 RMK A01 T02620204  RH  070%=      5-min Rain = 0
KHA3 201235Z 19014KT 26/21 A299 RMK A01 T02630205  RH  070%=      5-min Rain = 0
KHA3 201236Z 19014KT 26/21 A299 RMK A01 T02620205  RH  070%=      5-min Rain = 0
KHA3 201237Z 19014KT 26/21 A299 RMK A01 T02620205  RH  070%=      5-min Rain = 0
KHA3 201238Z 19015KT 26/21 A299 RMK A01 T02630205  RH  070%=      5-min Rain = 0
KHA3 201239Z 19012KT 26/21 A299 RMK A01 T02630205  RH  070%=      5-min Rain = 0
KHA3 201240Z 19015KT 26/21 A299 RMK A01 T02630206  RH  071%=      5-min Rain = 0
KHA3 201241Z 19017KT 26/21 A299 RMK A01 T02630205  RH  071%=      5-min Rain = 0
KHA3 201242Z 19016KT 26/21 A299 RMK A01 T02630205  RH  070%=      5-min Rain = 0
KHA3 201243Z 19014KT 26/21 A299 RMK A01 T02630206  RH  070%=      5-min Rain = 0
KHA3 201244Z 19013G19KT 26/21 A299 RMK A01 T02630206  RH  071%=      5-min Rain = 0
KHA3 201245Z 19016KT 26/21 A299 RMK A01 T02640205  RH  070%=      5-min Rain = 0
KHA3 201246Z 19014KT 26/21 A299 RMK A01 T02640206  RH  070%=      5-min Rain = 0
KHA3 201247Z 19011KT 26/21 A299 RMK A01 T02640206  RH  070%=      5-min Rain = 0
KHA3 201248Z 19012KT 26/21 A299 RMK A01 T02640206  RH  070%=      5-min Rain = 0
KHA3 201249Z 19014KT 26/21 A299 RMK A01 T02640206  RH  070%=      5-min Rain = 0
KHA3 201250Z 19015KT 27/21 A299 RMK A01 T02650207  RH  070%=      5-min Rain = 0
KHA3 201251Z 19014KT 27/21 A299 RMK A01 T02650206  RH  070%=      5-min Rain = 0
KHA3 201252Z 19014KT 27/21 A299 RMK A01 T02650206  RH  070%=      5-min Rain = 0
KHA3 201253Z 19016KT 27/21 A299 RMK A01 T02650206  RH  070%=      5-min Rain = 0
KHA3 201254Z 19017KT 27/21 A299 RMK A01 T02660207  RH  070%=      5-min Rain = 0
KHA3 201255Z 19014KT 27/21 A299 RMK A01 T02660207  RH  070%=      5-min Rain = 0
KHA3 201256Z 19015KT 27/21 A299 RMK A01 T02660207  RH  070%=      5-min Rain = 0
KHA3 201257Z 19016KT 27/21 A299 RMK A01 T02670207  RH  070%=      5-min Rain = 0
KHA3 201258Z 19017KT 27/21 A299 RMK A01 T02670207  RH  070%=      5-min Rain = 0
KHA3 201259Z 19017KT 27/21 A299 RMK A01 T02670207  RH  069%=      5-min Rain = 0
KHA3 201300Z 20015KT 27/21 A299 RMK A01 T02670207  RH  070%=      5-min Rain = 0
KHA3 201301Z 20015KT 27/21 A299 RMK A01 T02670207  RH  069%=      5-min Rain = 0
KHA3 201302Z 20015KT 27/21 A299 RMK A01 T02680207  RH  069%=      5-min Rain = 0
KHA3 201303Z 19013KT 27/21 A299 RMK A01 T02680207  RH  069%=      5-min Rain = 0
KHA3 201304Z 19016KT 27/21 A299 RMK A01 T02680208  RH  069%=      5-min Rain = 0
KHA3 201305Z 20014KT 27/21 A299 RMK A01 T02690208  RH  069%=      5-min Rain = 0
KHA3 201306Z 20013KT 27/21 A299 RMK A01 T02690208  RH  069%=      5-min Rain = 0
KHA3 201307Z 19014KT 27/21 A299 RMK A01 T02700208  RH  069%=      5-min Rain = 0
KHA3 201308Z 20017KT 27/21 A299 RMK A01 T02700208  RH  069%=      5-min Rain = 0
KHA3 201309Z 19014KT 27/21 A299 RMK A01 T02700208  RH  069%=      5-min Rain = 0
KHA3 201310Z 19015KT 27/21 A299 RMK A01 T02700208  RH  069%=      5-min Rain = 0
KHA3 201311Z 19011KT 27/21 A299 RMK A01 T02700208  RH  069%=      5-min Rain = 0
KHA3 201312Z 20016KT 27/21 A299 RMK A01 T02710209  RH  069%=      5-min Rain = 0
KHA3 201313Z 20015KT 27/21 A299 RMK A01 T02720208  RH  068%=      5-min Rain = 0
KHA3 201314Z 20015KT 27/21 A299 RMK A01 T02720208  RH  068%=      5-min Rain = 0
KHA3 201315Z 20016KT 27/21 A299 RMK A01 T02720208  RH  068%=      5-min Rain = 0
KHA3 201316Z 20017KT 27/21 A299 RMK A01 T02720208  RH  068%=      5-min Rain = 0
KHA3 201317Z 20014KT 27/21 A299 RMK A01 T02720208  RH  068%=      5-min Rain = 0
KHA3 201318Z 20015KT 27/21 A299 RMK A01 T02720208  RH  068%=      5-min Rain = 0
KHA3 201319Z 19016KT 27/21 A299 RMK A01 T02730209  RH  068%=      5-min Rain = 0
KHA3 201320Z 20017KT 27/21 A299 RMK A01 T02730208  RH  068%=      5-min Rain = 0
KHA3 201321Z 20015KT 27/21 A299 RMK A01 T02730208  RH  068%=      5-min Rain = 0
KHA3 201322Z 20014KT 27/21 A299 RMK A01 T02730208  RH  068%=      5-min Rain = 0
KHA3 201323Z 20015KT 27/21 A299 RMK A01 T02740209  RH  068%=      5-min Rain = 0
KHA3 201324Z 20014KT 28/21 A299 RMK A01 T02750208  RH  067%=      5-min Rain = 0
KHA3 201325Z 19017KT 28/21 A299 RMK A01 T02760208  RH  067%=      5-min Rain = 0
KHA3 201326Z 19018KT 28/21 A299 RMK A01 T02760208  RH  066%=      5-min Rain = 0
KHA3 201327Z 20016KT 28/21 A299 RMK A01 T02750208  RH  067%=      5-min Rain = 0
KHA3 201328Z 20015G20KT 28/21 A299 RMK A01 T02760208  RH  067%=      5-min Rain = 0
KHA3 201329Z 20016G21KT 28/21 A2991 RMK A01 T02760208  RH  067%=      5-min Rain = 0
KHA3 201330Z 20018G23KT 28/21 A2991 RMK A01 T02770208  RH  066%=      5-min Rain = 0
KHA3 201331Z 20017KT 28/21 A2991 RMK A01 T02770208  RH  066%=      5-min Rain = 0
KHA3 201332Z 20014KT 28/21 A2991 RMK A01 T02770209  RH  066%=      5-min Rain = 0
KHA3 201333Z 19012KT 28/21 A2991 RMK A01 T02780209  RH  066%=      5-min Rain = 0
KHA3 201334Z 20017KT 28/21 A2991 RMK A01 T02790209  RH  066%=      5-min Rain = 0
KHA3 201335Z 19019KT 28/21 A299 RMK A01 T02790208  RH  065%=      5-min Rain = 0
KHA3 201336Z 21017KT 28/21 A2991 RMK A01 T02790208  RH  065%=      5-min Rain = 0
KHA3 201337Z 20016KT 28/21 A2991 RMK A01 T02790207  RH  065%=      5-min Rain = 0
KHA3 201338Z 19017KT 28/21 A2991 RMK A01 T02790207  RH  065%=      5-min Rain = 0
KHA3 201339Z 19017KT 28/21 A2991 RMK A01 T02790208  RH  065%=      5-min Rain = 0
KHA3 201340Z 20019G24KT 28/21 A2991 RMK A01 T02800207  RH  065%=      5-min Rain = 0
KHA3 201341Z 20018KT 28/21 A2991 RMK A01 T02790207  RH  065%=      5-min Rain = 0
KHA3 201342Z 19017KT 28/21 A2991 RMK A01 T02790208  RH  065%=      5-min Rain = 0
KHA3 201343Z 20018KT 28/21 A2991 RMK A01 T02790208  RH  065%=      5-min Rain = 0
KHA3 201344Z 19021KT 28/21 A2991 RMK A01 T02790208  RH  065%=      5-min Rain = 0
KHA3 201345Z 19019G25KT 28/21 A2991 RMK A01 T02790207  RH  065%=      5-min Rain = 0
KHA3 201346Z 20017KT 28/21 A2991 RMK A01 T02790207  RH  065%=      5-min Rain = 0
KHA3 201347Z 20016G21KT 28/21 A2991 RMK A01 T02800208  RH  065%=      5-min Rain = 0
KHA3 201348Z 20019KT 28/21 A2991 RMK A01 T02810208  RH  064%=      5-min Rain = 0
KHA3 201349Z 19017G22KT 28/21 A2991 RMK A01 T02810208  RH  064%=      5-min Rain = 0
KHA3 201350Z 20015KT 28/21 A2991 RMK A01 T02820208  RH  064%=      5-min Rain = 0
KHA3 201351Z 20017G22KT 28/21 A2991 RMK A01 T02820208  RH  064%=      5-min Rain = 0
KHA3 201352Z 19015KT 28/21 A2991 RMK A01 T02830207  RH  063%=      5-min Rain = 0
KHA3 201353Z 19018KT 28/21 A2991 RMK A01 T02840207  RH  063%=      5-min Rain = 0
KHA3 201354Z 19018KT 28/21 A2991 RMK A01 T02840207  RH  063%=      5-min Rain = 0
KHA3 201355Z 19017KT 28/21 A2991 RMK A01 T02840207  RH  063%=      5-min Rain = 0
KHA3 201356Z 20018KT 28/21 A299 RMK A01 T02840207  RH  063%=      5-min Rain = 0
KHA3 201357Z 20019KT 28/21 A2991 RMK A01 T02840206  RH  063%=      5-min Rain = 0
KHA3 201358Z 20020KT 28/21 A299 RMK A01 T02840207  RH  063%=      5-min Rain = 0
KHA3 201359Z 20016KT 28/21 A2991 RMK A01 T02840207  RH  063%=      5-min Rain = 0
KHA3 201400Z 19017KT 29/21 A2991 RMK A01 T02850207  RH  063%=      5-min Rain = 0
KHA3 201401Z 20018KT 29/21 A2991 RMK A01 T02860207  RH  062%=      5-min Rain = 0
KHA3 201402Z 19018KT 29/21 A299 RMK A01 T02860206  RH  062%=      5-min Rain = 0
KHA3 201403Z 19017G22KT 29/21 A2991 RMK A01 T02860206  RH  062%=      5-min Rain = 0
KHA3 201404Z 19019G24KT 29/21 A2991 RMK A01 T02870207  RH  062%=      5-min Rain = 0
KHA3 201405Z 20017KT 29/21 A2991 RMK A01 T02870206  RH  062%=      5-min Rain = 0
KHA3 201406Z 20018KT 29/21 A2991 RMK A01 T02870206  RH  062%=      5-min Rain = 0
KHA3 201407Z 20017KT 29/21 A299 RMK A01 T02870205  RH  061%=      5-min Rain = 0
KHA3 201408Z 20017KT 29/21 A299 RMK A01 T02880206  RH  061%=      5-min Rain = 0
KHA3 201409Z 20019KT 29/21 A299 RMK A01 T02890206  RH  061%=      5-min Rain = 0
KHA3 201410Z 20017KT 29/21 A299 RMK A01 T02890207  RH  061%=      5-min Rain = 0
KHA3 201411Z 19021G26KT 29/21 A299 RMK A01 T02900206  RH  061%=      5-min Rain = 0
KHA3 201412Z 19021KT 29/21 A299 RMK A01 T02890205  RH  060%=      5-min Rain = 0
KHA3 201413Z 19020KT 29/21 A299 RMK A01 T02890206  RH  061%=      5-min Rain = 0
KHA3 201414Z 19018G23KT 29/21 A299 RMK A01 T02890206  RH  061%=      5-min Rain = 0
KHA3 201415Z 19021KT 29/21 A299 RMK A01 T02900205  RH  060%=      5-min Rain = 0
KHA3 201416Z 20020G25KT 29/21 A299 RMK A01 T02890205  RH  060%=      5-min Rain = 0
KHA3 201417Z 20020KT 29/21 A299 RMK A01 T02900205  RH  060%=      5-min Rain = 0
KHA3 201418Z 20019KT 29/21 A299 RMK A01 T02890205  RH  060%=      5-min Rain = 0
KHA3 201419Z 20018KT 29/21 A2991 RMK A01 T02900206  RH  061%=      5-min Rain = 0
KHA3 201420Z 19020KT 29/21 A299 RMK A01 T02910206  RH  060%=      5-min Rain = 0
KHA3 201421Z 19021KT 29/21 A299 RMK A01 T02910206  RH  060%=      5-min Rain = 0
KHA3 201422Z 19023KT 29/20 A2991 RMK A01 T02910204  RH  060%=      5-min Rain = 0
KHA3 201423Z 19020KT 29/21 A2991 RMK A01 T02910205  RH  060%=      5-min Rain = 0
KHA3 201424Z 19020KT 29/21 A2991 RMK A01 T02920205  RH  060%=      5-min Rain = 0
KHA3 201425Z 20020KT 29/21 A2991 RMK A01 T02920205  RH  060%=      5-min Rain = 0
KHA3 201426Z 20017KT 29/21 A2991 RMK A01 T02910205  RH  060%=      5-min Rain = 0
KHA3 201427Z 20017KT 29/21 A2991 RMK A01 T02930206  RH  060%=      5-min Rain = 0
KHA3 201428Z 20018KT 29/21 A2991 RMK A01 T02940207  RH  059%=      5-min Rain = 0
KHA3 201429Z 20018KT 30/21 A2991 RMK A01 T02960206  RH  058%=      5-min Rain = 0
KHA3 201430Z 20018G25KT 30/21 A2991 RMK A01 T02950206  RH  059%=      5-min Rain = 0
KHA3 201431Z 20023KT 30/20 A299 RMK A01 T02950204  RH  058%=      5-min Rain = 0
KHA3 201432Z 21019G25KT 29/20 A299 RMK A01 T02930204  RH  058%=      5-min Rain = 0
KHA3 201433Z 21020KT 29/21 A299 RMK A01 T02930205  RH  059%=      5-min Rain = 0
KHA3 201434Z 20018KT 29/21 A299 RMK A01 T02930205  RH  059%=      5-min Rain = 0
KHA3 201435Z 20017KT 29/21 A2991 RMK A01 T02940206  RH  059%=      5-min Rain = 0
KHA3 201436Z 19019G24KT 30/21 A2991 RMK A01 T02960206  RH  058%=      5-min Rain = 0
KHA3 201437Z 19019KT 30/21 A2991 RMK A01 T02960206  RH  058%=      5-min Rain = 0
KHA3 201438Z 20020KT 30/21 A299 RMK A01 T02960206  RH  059%=      5-min Rain = 0
KHA3 201439Z 19015KT 30/21 A299 RMK A01 T02970207  RH  058%=      5-min Rain = 0
KHA3 201440Z 19015KT 30/21 A2991 RMK A01 T02990208  RH  058%=      5-min Rain = 0
KHA3 201441Z 20020KT 30/21 A299 RMK A01 T03010207  RH  057%=      5-min Rain = 0
KHA3 201442Z 19019KT 30/21 A299 RMK A01 T02980206  RH  058%=      5-min Rain = 0
KHA3 201443Z 20017G22KT 30/21 A299 RMK A01 T02960207  RH  059%=      5-min Rain = 0
KHA3 201444Z 19018G23KT 30/21 A299 RMK A01 T02980207  RH  058%=      5-min Rain = 0
KHA3 201445Z 20014G19KT 30/21 A299 RMK A01 T03000207  RH  057%=      5-min Rain = 0
KHA3 201446Z 20019KT 30/21 A299 RMK A01 T03030206  RH  056%=      5-min Rain = 0
KHA3 201447Z 19020KT 30/21 A299 RMK A01 T03020205  RH  056%=      5-min Rain = 0
KHA3 201448Z 19021KT 30/21 A299 RMK A01 T03010205  RH  056%=      5-min Rain = 0
KHA3 201449Z 20020G25KT 30/21 A299 RMK A01 T03000205  RH  057%=      5-min Rain = 0
KHA3 201450Z 20020KT 30/21 A299 RMK A01 T02990205  RH  057%=      5-min Rain = 0
KHA3 201451Z 19021KT 30/21 A299 RMK A01 T02990205  RH  057%=      5-min Rain = 0
KHA3 201452Z 20019KT 30/21 A299 RMK A01 T02980206  RH  058%=      5-min Rain = 0
KHA3 201453Z 20018KT 30/21 A299 RMK A01 T02990206  RH  058%=      5-min Rain = 0
KHA3 201454Z 20020KT 30/21 A299 RMK A01 T03000205  RH  057%=      5-min Rain = 0
KHA3 201455Z 19018G24KT 30/21 A299 RMK A01 T03000206  RH  057%=      5-min Rain = 0
KHA3 201456Z 19019KT 30/20 A299 RMK A01 T03010204  RH  056%=      5-min Rain = 0
KHA3 201457Z 19021KT 30/20 A299 RMK A01 T03010204  RH  056%=      5-min Rain = 0
KHA3 201458Z 19021KT 30/20 A299 RMK A01 T03010203  RH  056%=      5-min Rain = 0
KHA3 201459Z 19021G26KT 30/20 A299 RMK A01 T03010204  RH  056%=      5-min Rain = 0
KHA3 201500Z 18020KT 30/20 A299 RMK A01 T03010203  RH  056%=      5-min Rain = 0
KHA3 201501Z 19020KT 30/20 A299 RMK A01 T03020203  RH  056%=      5-min Rain = 0
KHA3 201502Z 20019KT 30/20 A299 RMK A01 T03020203  RH  056%=      5-min Rain = 0
KHA3 201503Z 20019KT 30/20 A299 RMK A01 T03030204  RH  055%=      5-min Rain = 0
KHA3 201504Z 20019KT 31/21 A299 RMK A01 T03050205  RH  055%=      5-min Rain = 0
KHA3 201505Z 18020KT 31/21 A299 RMK A01 T03050205  RH  055%=      5-min Rain = 0
KHA3 201506Z 19018KT 31/21 A299 RMK A01 T03050206  RH  056%=      5-min Rain = 0
KHA3 201507Z 20018KT 31/21 A299 RMK A01 T03060206  RH  055%=      5-min Rain = 0
KHA3 201508Z 20019KT 31/21 A299 RMK A01 T03070205  RH  055%=      5-min Rain = 0
KHA3 201509Z 20018KT 31/21 A299 RMK A01 T03070205  RH  054%=      5-min Rain = 0
KHA3 201510Z 20015KT 31/21 A299 RMK A01 T03070206  RH  055%=      5-min Rain = 0
KHA3 201511Z 19020KT 31/21 A299 RMK A01 T03090207  RH  055%=      5-min Rain = 0
KHA3 201512Z 19018KT 31/21 A299 RMK A01 T03080207  RH  055%=      5-min Rain = 0
KHA3 201513Z 20015G20KT 31/21 A299 RMK A01 T03080208  RH  055%=      5-min Rain = 0
KHA3 201514Z 21020G25KT 31/21 A299 RMK A01 T03090205  RH  054%=      5-min Rain = 0
KHA3 201515Z 21018KT 31/20 A299 RMK A01 T03100204  RH  053%=      5-min Rain = 0
KHA3 201516Z 20019KT 31/20 A299 RMK A01 T03090202  RH  053%=      5-min Rain = 0
KHA3 201517Z 20018KT 31/20 A299 RMK A01 T03100202  RH  053%=      5-min Rain = 0
KHA3 201518Z 20019KT 31/20 A299 RMK A01 T03100204  RH  053%=      5-min Rain = 0
KHA3 201519Z 20017KT 31/20 A299 RMK A01 T03090204  RH  054%=      5-min Rain = 0
KHA3 201520Z 20016KT 31/20 A299 RMK A01 T03090204  RH  054%=      5-min Rain = 0
KHA3 201521Z 20019KT 31/21 A299 RMK A01 T03090205  RH  054%=      5-min Rain = 0
KHA3 201522Z 20016G22KT 31/21 A299 RMK A01 T03080206  RH  055%=      5-min Rain = 0
KHA3 201523Z 19020KT 31/20 A299 RMK A01 T03100203  RH  053%=      5-min Rain = 0
KHA3 201524Z 19017KT 31/20 A299 RMK A01 T03100204  RH  053%=      5-min Rain = 0
KHA3 201525Z 20017KT 31/20 A299 RMK A01 T03100204  RH  053%=      5-min Rain = 0
KHA3 201526Z 20018KT 31/21 A299 RMK A01 T03090205  RH  054%=      5-min Rain = 0
KHA3 201527Z 19020KT 31/20 A299 RMK A01 T03100204  RH  053%=      5-min Rain = 0
KHA3 201528Z 19019KT 31/20 A299 RMK A01 T03110201  RH  052%=      5-min Rain = 0
KHA3 201529Z 19018KT 31/20 A299 RMK A01 T03110203  RH  053%=      5-min Rain = 0
KHA3 201530Z 20016G22KT 31/20 A299 RMK A01 T03120203  RH  053%=      5-min Rain = 0
KHA3 201531Z 20018KT 31/20 A299 RMK A01 T03140202  RH  051%=      5-min Rain = 0
KHA3 201532Z 18017G23KT 32/20 A299 RMK A01 T03150203  RH  051%=      5-min Rain = 0
KHA3 201533Z 19015KT 32/20 A299 RMK A01 T03150204  RH  052%=      5-min Rain = 0
KHA3 201534Z 18016G21KT 32/21 A299 RMK A01 T03180205  RH  051%=      5-min Rain = 0
KHA3 201535Z 19017KT 32/20 A299 RMK A01 T03170203  RH  051%=      5-min Rain = 0
KHA3 201536Z 20021KT 32/20 A299 RMK A01 T03160201  RH  050%=      5-min Rain = 0
KHA3 201537Z 20017KT 32/20 A299 RMK A01 T03150201  RH  051%=      5-min Rain = 0
KHA3 201538Z 21015KT 32/20 A299 RMK A01 T03160203  RH  051%=      5-min Rain = 0
KHA3 201539Z 20017KT 32/20 A299 RMK A01 T03180203  RH  050%=      5-min Rain = 0
KHA3 201540Z 21016KT 32/20 A299 RMK A01 T03190201  RH  050%=      5-min Rain = 0
KHA3 201541Z 19015KT 32/20 A299 RMK A01 T03190201  RH  050%=      5-min Rain = 0
KHA3 201542Z 19016KT 32/20 A299 RMK A01 T03200204  RH  050%=      5-min Rain = 0
KHA3 201543Z 20017KT 32/20 A299 RMK A01 T03210204  RH  050%=      5-min Rain = 0
KHA3 201544Z 18016G22KT 32/20 A299 RMK A01 T03200204  RH  050%=      5-min Rain = 0
KHA3 201545Z 19014KT 32/20 A299 RMK A01 T03200203  RH  050%=      5-min Rain = 0
KHA3 201546Z 21015G20KT 32/21 A299 RMK A01 T03230205  RH  050%=      5-min Rain = 0
KHA3 201547Z 20017KT 32/20 A299 RMK A01 T03230202  RH  049%=      5-min Rain = 0
KHA3 201548Z 20019G24KT 32/20 A299 RMK A01 T03210201  RH  049%=      5-min Rain = 0
KHA3 201549Z 20018KT 32/20 A299 RMK A01 T03200201  RH  049%=      5-min Rain = 0
KHA3 201550Z 18021KT 32/20 A299 RMK A01 T03210200  RH  049%=      5-min Rain = 0
KHA3 201551Z 18020KT 32/20 A299 RMK A01 T03210199  RH  049%=      5-min Rain = 0
KHA3 201552Z 20020KT 32/20 A2989 RMK A01 T03200199  RH  049%=      5-min Rain = 0
KHA3 201553Z 20015KT 32/20 A2989 RMK A01 T03190200  RH  049%=      5-min Rain = 0
KHA3 201554Z 20017KT 32/20 A2989 RMK A01 T03180200  RH  050%=      5-min Rain = 0
KHA3 201555Z 19019KT 32/20 A2989 RMK A01 T03190200  RH  049%=      5-min Rain = 0
KHA3 201556Z 19019KT 32/20 A2989 RMK A01 T03190201  RH  050%=      5-min Rain = 0
KHA3 201557Z 18019KT 32/20 A2989 RMK A01 T03200201  RH  049%=      5-min Rain = 0
KHA3 201558Z 19017KT 32/20 A2989 RMK A01 T03190202  RH  050%=      5-min Rain = 0
KHA3 201559Z 18017KT 32/20 A2989 RMK A01 T03210203  RH  050%=      5-min Rain = 0
KHA3 201600Z 18016KT 32/20 A2989 RMK A01 T03230203  RH  049%=      5-min Rain = 0
KHA3 201601Z 18016KT 32/20 A2989 RMK A01 T03240202  RH  049%=      5-min Rain = 0
KHA3 201602Z 20017G23KT 33/20 A2989 RMK A01 T03250201  RH  048%=      5-min Rain = 0
KHA3 201603Z 20021KT 33/20 A2989 RMK A01 T03270197  RH  046%=      5-min Rain = 0
KHA3 201604Z 20020KT 33/20 A2989 RMK A01 T03260196  RH  046%=      5-min Rain = 0
KHA3 201605Z 20019KT 33/20 A2989 RMK A01 T03250195  RH  046%=      5-min Rain = 0
KHA3 201606Z 21018KT 33/20 A2989 RMK A01 T03250197  RH  047%=      5-min Rain = 0
KHA3 201607Z 20018KT 33/20 A2989 RMK A01 T03250199  RH  047%=      5-min Rain = 0
KHA3 201608Z 21018KT 33/20 A2989 RMK A01 T03250199  RH  047%=      5-min Rain = 0
KHA3 201609Z 21016KT 33/20 A2989 RMK A01 T03250197  RH  047%=      5-min Rain = 0
KHA3 201610Z 19017KT 33/20 A2989 RMK A01 T03270201  RH  048%=      5-min Rain = 0
KHA3 201611Z 20017KT 33/20 A2989 RMK A01 T03310200  RH  046%=      5-min Rain = 0
KHA3 201612Z 19014KT 33/20 A2989 RMK A01 T03300201  RH  047%=      5-min Rain = 0
KHA3 201613Z 18018KT 33/20 A2989 RMK A01 T03300201  RH  047%=      5-min Rain = 0
KHA3 201614Z 19016KT 33/20 A2989 RMK A01 T03280202  RH  047%=      5-min Rain = 0
KHA3 201615Z 20016KT 33/20 A2989 RMK A01 T03280201  RH  047%=      5-min Rain = 0
KHA3 201616Z 19018G23KT 33/20 A2989 RMK A01 T03290200  RH  047%=      5-min Rain = 0
KHA3 201617Z 20020KT 33/20 A2989 RMK A01 T03310198  RH  045%=      5-min Rain = 0
KHA3 201618Z 19020KT 33/20 A2989 RMK A01 T03300196  RH  045%=      5-min Rain = 0
KHA3 201619Z 19017KT 33/20 A2989 RMK A01 T03280196  RH  046%=      5-min Rain = 0
KHA3 201620Z 18018KT 33/20 A2989 RMK A01 T03290197  RH  046%=      5-min Rain = 0
KHA3 201621Z 19016KT 33/20 A2989 RMK A01 T03290198  RH  046%=      5-min Rain = 0
KHA3 201622Z 18016KT 33/20 A2989 RMK A01 T03290198  RH  046%=      5-min Rain = 0
KHA3 201623Z 18019KT 33/20 A2989 RMK A01 T03290198  RH  046%=      5-min Rain = 0
KHA3 201624Z 18015KT 33/20 A2989 RMK A01 T03310200  RH  046%=      5-min Rain = 0
KHA3 201625Z 18019KT 33/20 A2989 RMK A01 T03310198  RH  045%=      5-min Rain = 0
KHA3 201626Z 18019KT 33/20 A2989 RMK A01 T03300197  RH  045%=      5-min Rain = 0
KHA3 201627Z 18018KT 33/20 A2989 RMK A01 T03300196  RH  045%=      5-min Rain = 0
KHA3 201628Z 19017KT 33/20 A2989 RMK A01 T03310197  RH  045%=      5-min Rain = 0
KHA3 201629Z 19019KT 33/20 A2989 RMK A01 T03320198  RH  045%=      5-min Rain = 0
KHA3 201630Z 19019KT 33/20 A2989 RMK A01 T03330197  RH  045%=      5-min Rain = 0
KHA3 201631Z 19013KT 33/20 A2989 RMK A01 T03330198  RH  045%=      5-min Rain = 0
KHA3 201632Z 19017KT 33/20 A2989 RMK A01 T03340198  RH  045%=      5-min Rain = 0
KHA3 201633Z 19019KT 33/20 A2989 RMK A01 T03340196  RH  044%=      5-min Rain = 0
KHA3 201634Z 18017G22KT 33/20 A2989 RMK A01 T03340197  RH  044%=      5-min Rain = 0
KHA3 201635Z 18017G22KT 34/20 A2989 RMK A01 T03350199  RH  045%=      5-min Rain = 0
KHA3 201636Z 18016G21KT 34/20 A2989 RMK A01 T03360199  RH  045%=      5-min Rain = 0
KHA3 201637Z 18015KT 34/20 A2989 RMK A01 T03360201  RH  045%=      5-min Rain = 0
KHA3 201638Z 18017KT 34/20 A2989 RMK A01 T03360202  RH  045%=      5-min Rain = 0
KHA3 201639Z 17018KT 34/20 A2989 RMK A01 T03360199  RH  045%=      5-min Rain = 0
KHA3 201640Z 17017KT 34/20 A2989 RMK A01 T03360199  RH  045%=      5-min Rain = 0
KHA3 201641Z 18014KT 34/20 A2989 RMK A01 T03380201  RH  045%=      5-min Rain = 0
KHA3 201642Z 18014KT 34/20 A2989 RMK A01 T03410201  RH  044%=      5-min Rain = 0
KHA3 201643Z 19013KT 34/20 A2989 RMK A01 T03410201  RH  044%=      5-min Rain = 0
KHA3 201644Z 19012G18KT 34/20 A2989 RMK A01 T03440204  RH  044%=      5-min Rain = 0
KHA3 201645Z 18015G20KT 35/20 A2989 RMK A01 T03470203  RH  043%=      5-min Rain = 0
KHA3 201646Z 17015KT 34/20 A2989 RMK A01 T03430200  RH  043%=      5-min Rain = 0
KHA3 201647Z 19017KT 34/20 A2989 RMK A01 T03410201  RH  044%=      5-min Rain = 0
KHA3 201648Z 19017KT 34/20 A2989 RMK A01 T03420197  RH  043%=      5-min Rain = 0
KHA3 201649Z 20018KT 34/20 A2989 RMK A01 T03410196  RH  043%=      5-min Rain = 0
KHA3 201650Z 19017KT 34/20 A2989 RMK A01 T03400195  RH  043%=      5-min Rain = 0
KHA3 201651Z 19015KT 34/20 A2989 RMK A01 T03380198  RH  044%=      5-min Rain = 0
KHA3 201652Z 18017KT 34/20 A2989 RMK A01 T03380199  RH  044%=      5-min Rain = 0
KHA3 201653Z 17016KT 34/20 A2989 RMK A01 T03390199  RH  044%=      5-min Rain = 0
KHA3 201654Z 18017KT 34/20 A2989 RMK A01 T03400198  RH  043%=      5-min Rain = 0
KHA3 201655Z 18019KT 34/20 A2989 RMK A01 T03390197  RH  043%=      5-min Rain = 0
KHA3 201656Z 18017KT 34/20 A2989 RMK A01 T03390197  RH  043%=      5-min Rain = 0
KHA3 201657Z 17018G23KT 34/20 A2989 RMK A01 T03390198  RH  044%=      5-min Rain = 0
KHA3 201658Z 17017KT 34/20 A2989 RMK A01 T03400198  RH  044%=      5-min Rain = 0
KHA3 201659Z 18019G25KT 34/20 A2989 RMK A01 T03420200  RH  043%=      5-min Rain = 0
KHA3 201700Z 19019KT 34/20 A2989 RMK A01 T03430199  RH  043%=      5-min Rain = 0
KHA3 201701Z 18015KT 34/20 A2989 RMK A01 T03420198  RH  043%=      5-min Rain = 0
KHA3 201702Z 17012G17KT 34/20 A2989 RMK A01 T03420201  RH  044%=      5-min Rain = 0
KHA3 201703Z 18013KT 35/20 A2989 RMK A01 T03450200  RH  043%=      5-min Rain = 0
KHA3 201704Z 18016KT 35/20 A2989 RMK A01 T03450200  RH  043%=      5-min Rain = 0
KHA3 201705Z 17015KT 35/20 A2989 RMK A01 T03470201  RH  043%=      5-min Rain = 0
KHA3 201706Z 17012KT 35/20 A2989 RMK A01 T03490203  RH  042%=      5-min Rain = 0
KHA3 201707Z 17013KT 35/20 A2989 RMK A01 T03520201  RH  042%=      5-min Rain = 0
KHA3 201708Z 18014KT 35/20 A2989 RMK A01 T03510202  RH  042%=      5-min Rain = 0
KHA3 201709Z 19016KT 35/20 A2989 RMK A01 T03500201  RH  042%=      5-min Rain = 0
KHA3 201710Z 18015KT 35/20 A2989 RMK A01 T03500200  RH  042%=      5-min Rain = 0
KHA3 201711Z 19014KT 35/20 A2989 RMK A01 T03490198  RH  041%=      5-min Rain = 0
KHA3 201712Z 17016KT 35/20 A2989 RMK A01 T03460197  RH  042%=      5-min Rain = 0
KHA3 201713Z 18013KT 35/20 A2989 RMK A01 T03450199  RH  042%=      5-min Rain = 0
KHA3 201714Z 20014KT 35/20 A2989 RMK A01 T03470199  RH  042%=      5-min Rain = 0
KHA3 201715Z 18016G21KT 35/20 A2989 RMK A01 T03470198  RH  042%=      5-min Rain = 0
KHA3 201716Z 18017KT 35/20 A2989 RMK A01 T03470197  RH  041%=      5-min Rain = 0
KHA3 201717Z 19015KT 35/20 A2989 RMK A01 T03460196  RH  041%=      5-min Rain = 0
KHA3 201718Z 20017KT 35/20 A2989 RMK A01 T03460197  RH  042%=      5-min Rain = 0
KHA3 201719Z 20017KT 35/20 A2989 RMK A01 T03460197  RH  042%=      5-min Rain = 0
KHA3 201720Z 19015KT 35/20 A2989 RMK A01 T03460196  RH  041%=      5-min Rain = 0
KHA3 201721Z 19019KT 35/20 A2989 RMK A01 T03460198  RH  042%=      5-min Rain = 0
KHA3 201722Z 18015G20KT 35/20 A2989 RMK A01 T03460196  RH  042%=      5-min Rain = 0
KHA3 201723Z 18014KT 35/20 A2989 RMK A01 T03460200  RH  042%=      5-min Rain = 0
KHA3 201724Z 17015KT 35/20 A2989 RMK A01 T03490196  RH  041%=      5-min Rain = 0
KHA3 201725Z 16014KT 35/20 A2989 RMK A01 T03460197  RH  042%=      5-min Rain = 0
KHA3 201726Z 16016KT 35/20 A2989 RMK A01 T03470196  RH  041%=      5-min Rain = 0
KHA3 201727Z 19013KT 35/20 A2989 RMK A01 T03490197  RH  041%=      5-min Rain = 0
KHA3 201728Z 17016KT 35/19 A2989 RMK A01 T03520194  RH  040%=      5-min Rain = 0
KHA3 201729Z 15013KT 35/20 A2989 RMK A01 T03500195  RH  040%=      5-min Rain = 0
KHA3 201730Z 16012KT 35/20 A2989 RMK A01 T03490196  RH  041%=      5-min Rain = 0
KHA3 201731Z 16014KT 35/20 A2989 RMK A01 T03500196  RH  041%=      5-min Rain = 0
KHA3 201732Z 16018KT 35/20 A2988 RMK A01 T03500195  RH  040%=      5-min Rain = 0
KHA3 201733Z 17017KT 35/20 A2988 RMK A01 T03490195  RH  040%=      5-min Rain = 0
KHA3 201734Z 17015KT 35/20 A2988 RMK A01 T03490195  RH  041%=      5-min Rain = 0
KHA3 201735Z 17017KT 35/20 A2988 RMK A01 T03500195  RH  040%=      5-min Rain = 0
KHA3 201736Z 16016G21KT 35/19 A2988 RMK A01 T03520194  RH  039%=      5-min Rain = 0
KHA3 201737Z 18019KT 35/19 A2988 RMK A01 T03540191  RH  038%=      5-min Rain = 0
KHA3 201738Z 18015G20KT 35/19 A2989 RMK A01 T03540192  RH  038%=      5-min Rain = 0
KHA3 201739Z 17013KT 35/19 A2989 RMK A01 T03540194  RH  039%=      5-min Rain = 0
KHA3 201740Z 16013KT 35/19 A2988 RMK A01 T03540194  RH  039%=      5-min Rain = 0
KHA3 201741Z 17018KT 36/20 A2988 RMK A01 T03560195  RH  039%=      5-min Rain = 0
KHA3 201742Z 18017KT 36/19 A2989 RMK A01 T03560193  RH  038%=      5-min Rain = 0
KHA3 201743Z 18014KT 35/19 A2989 RMK A01 T03540189  RH  038%=      5-min Rain = 0
KHA3 201744Z 17014G19KT 35/19 A2989 RMK A01 T03520190  RH  039%=      5-min Rain = 0
KHA3 201745Z 16011KT 35/19 A2989 RMK A01 T03520194  RH  039%=      5-min Rain = 0
KHA3 201746Z 17010KT 36/20 A2989 RMK A01 T03550195  RH  039%=      5-min Rain = 0
KHA3 201747Z 17014G19KT 36/20 A2989 RMK A01 T03550195  RH  039%=      5-min Rain = 0
KHA3 201748Z 17019KT 36/19 A2989 RMK A01 T03570191  RH  038%=      5-min Rain = 0
KHA3 201749Z 18018KT 36/19 A2989 RMK A01 T03580185  RH  036%=      5-min Rain = 0
KHA3 201750Z 19017KT 36/19 A2989 RMK A01 T03560188  RH  037%=      5-min Rain = 0
KHA3 201751Z 18017KT 36/19 A2989 RMK A01 T03570190  RH  038%=      5-min Rain = 0
KHA3 201752Z 18016KT 36/19 A2989 RMK A01 T03570190  RH  037%=      5-min Rain = 0
KHA3 201753Z 17014KT 36/19 A2989 RMK A01 T03550192  RH  039%=      5-min Rain = 0
KHA3 201754Z 18014KT 36/19 A2989 RMK A01 T03550193  RH  039%=      5-min Rain = 0
KHA3 201755Z 18014KT 36/19 A2988 RMK A01 T03550193  RH  039%=      5-min Rain = 0
KHA3 201756Z 18015KT 36/19 A2988 RMK A01 T03550193  RH  039%=      5-min Rain = 0
KHA3 201757Z 17016KT 36/19 A2988 RMK A01 T03570192  RH  038%=      5-min Rain = 0
KHA3 201758Z 17012KT 36/19 A2988 RMK A01 T03580193  RH  038%=      5-min Rain = 0
KHA3 201759Z 18013KT 36/19 A2988 RMK A01 T03580194  RH  038%=      5-min Rain = 0
KHA3 201800Z 18011KT 36/19 A2988 RMK A01 T03570193  RH  038%=      5-min Rain = 0
KHA3 201801Z 18012KT 36/20 A2988 RMK A01 T03560197  RH  039%=      5-min Rain = 0
KHA3 201802Z 18015G22KT 36/20 A2988 RMK A01 T03620197  RH  038%=      5-min Rain = 0
KHA3 201803Z 16016KT 37/19 A2988 RMK A01 T03650192  RH  036%=      5-min Rain = 0
KHA3 201804Z 16017KT 37/19 A2988 RMK A01 T03650187  RH  035%=      5-min Rain = 0
KHA3 201805Z 17013KT 36/19 A2988 RMK A01 T03620187  RH  036%=      5-min Rain = 0
KHA3 201806Z 18014KT 36/19 A2988 RMK A01 T03610192  RH  037%=      5-min Rain = 0
KHA3 201807Z 20011KT 36/19 A2988 RMK A01 T03610189  RH  037%=      5-min Rain = 0
KHA3 201808Z 19013KT 36/19 A2988 RMK A01 T03600189  RH  037%=      5-min Rain = 0
KHA3 201809Z 18016KT 36/19 A2988 RMK A01 T03610189  RH  037%=      5-min Rain = 0
KHA3 201810Z 18013KT 36/19 A2988 RMK A01 T03620192  RH  037%=      5-min Rain = 0
KHA3 201811Z 15015KT 37/19 A2988 RMK A01 T03660189  RH  035%=      5-min Rain = 0
KHA3 201812Z 16018KT 37/19 A2988 RMK A01 T03670186  RH  035%=      5-min Rain = 0
KHA3 201813Z 16018KT 36/18 A2988 RMK A01 T03630184  RH  035%=      5-min Rain = 0
KHA3 201814Z 17016KT 36/19 A2988 RMK A01 T03620188  RH  036%=      5-min Rain = 0
KHA3 201815Z 17017KT 36/18 A2988 RMK A01 T03640183  RH  035%=      5-min Rain = 0
KHA3 201816Z 18016KT 37/18 A2988 RMK A01 T03650182  RH  034%=      5-min Rain = 0
KHA3 201817Z 18017KT 36/18 A2988 RMK A01 T03640183  RH  035%=      5-min Rain = 0
KHA3 201818Z 18017KT 36/19 A2988 RMK A01 T03640186  RH  035%=      5-min Rain = 0
KHA3 201819Z 18014KT 36/19 A2988 RMK A01 T03640187  RH  036%=      5-min Rain = 0
KHA3 201820Z 18016KT 37/19 A2988 RMK A01 T03670186  RH  035%=      5-min Rain = 0
KHA3 201821Z 17013KT 37/19 A2988 RMK A01 T03670185  RH  034%=      5-min Rain = 0
KHA3 201822Z 18013G18KT 37/19 A2987 RMK A01 T03650190  RH  036%=      5-min Rain = 0
KHA3 201823Z 19011KT 37/19 A2987 RMK A01 T03650190  RH  036%=      5-min Rain = 0
KHA3 201824Z 18011KT 37/19 A2987 RMK A01 T03680187  RH  035%=      5-min Rain = 0
KHA3 201825Z 17011G16KT 37/19 A2987 RMK A01 T03660191  RH  036%=      5-min Rain = 0
KHA3 201826Z 16015KT 37/19 A2987 RMK A01 T03670190  RH  035%=      5-min Rain = 0
KHA3 201827Z 15016KT 37/19 A2987 RMK A01 T03700189  RH  035%=      5-min Rain = 0
KHA3 201828Z 16015KT 37/19 A2987 RMK A01 T03710189  RH  035%=      5-min Rain = 0
KHA3 201829Z 16016KT 37/19 A2987 RMK A01 T03720186  RH  034%=      5-min Rain = 0
KHA3 201830Z 16017KT 37/18 A2987 RMK A01 T03730183  RH  033%=      5-min Rain = 0
KHA3 201831Z 16014KT 37/18 A2987 RMK A01 T03720183  RH  033%=      5-min Rain = 0
KHA3 201832Z 16012KT 37/19 A2987 RMK A01 T03700188  RH  035%=      5-min Rain = 0
KHA3 201833Z 17011KT 37/19 A2987 RMK A01 T03720192  RH  035%=      5-min Rain = 0
KHA3 201834Z 18015KT 38/19 A2987 RMK A01 T03770185  RH  033%=      5-min Rain = 0
KHA3 201835Z 18017KT 37/18 A2987 RMK A01 T03730179  RH  032%=      5-min Rain = 0
KHA3 201836Z 18014KT 37/18 A2987 RMK A01 T03690183  RH  034%=      5-min Rain = 0
KHA3 201837Z 17015KT 37/18 A2987 RMK A01 T03700184  RH  034%=      5-min Rain = 0
KHA3 201838Z 16015KT 37/18 A2987 RMK A01 T03720181  RH  033%=      5-min Rain = 0
KHA3 201839Z 14016KT 37/18 A2987 RMK A01 T03710182  RH  033%=      5-min Rain = 0
KHA3 201840Z 17014KT 37/18 A2987 RMK A01 T03710183  RH  033%=      5-min Rain = 0
KHA3 201841Z 18014KT 37/18 A2987 RMK A01 T03720179  RH  032%=      5-min Rain = 0
KHA3 201842Z 17013KT 37/18 A2987 RMK A01 T03710176  RH  032%=      5-min Rain = 0
KHA3 201843Z 19015G23KT 37/18 A2987 RMK A01 T03710179  RH  032%=      5-min Rain = 0
KHA3 201844Z 19016KT 37/18 A2986 RMK A01 T03720177  RH  032%=      5-min Rain = 0
KHA3 201845Z 18018KT 37/18 A2987 RMK A01 T03740179  RH  032%=      5-min Rain = 0
KHA3 201846Z 19016KT 37/18 A2986 RMK A01 T03730177  RH  032%=      5-min Rain = 0
KHA3 201847Z 17017KT 37/18 A2987 RMK A01 T03710179  RH  032%=      5-min Rain = 0
KHA3 201848Z 16016KT 37/18 A2987 RMK A01 T03710179  RH  033%=      5-min Rain = 0
KHA3 201849Z 15014KT 37/18 A2987 RMK A01 T03720176  RH  032%=      5-min Rain = 0
KHA3 201850Z 17017G22KT 37/18 A2986 RMK A01 T03740179  RH  032%=      5-min Rain = 0
KHA3 201851Z 18016KT 38/18 A2986 RMK A01 T03760176  RH  031%=      5-min Rain = 0
KHA3 201852Z 17018KT 38/18 A2986 RMK A01 T03750175  RH  031%=      5-min Rain = 0
KHA3 201853Z 16018KT 37/18 A2986 RMK A01 T03740177  RH  031%=      5-min Rain = 0
KHA3 201854Z 18015KT 37/18 A2987 RMK A01 T03730179  RH  032%=      5-min Rain = 0
KHA3 201855Z 18015KT 37/18 A2986 RMK A01 T03720182  RH  033%=      5-min Rain = 0
KHA3 201856Z 17011KT 37/18 A2986 RMK A01 T03710183  RH  033%=      5-min Rain = 0
KHA3 201857Z 17015G21KT 37/18 A2986 RMK A01 T03700184  RH  034%=      5-min Rain = 0
KHA3 201858Z 16017KT 37/18 A2986 RMK A01 T03710179  RH  033%=      5-min Rain = 0
KHA3 201859Z 17016KT 37/18 A2986 RMK A01 T03730181  RH  032%=      5-min Rain = 0
KHA3 201900Z 18015KT 38/18 A2986 RMK A01 T03750178  RH  031%=      5-min Rain = 0
KHA3 201901Z 17016KT 38/18 A2986 RMK A01 T03750176  RH  031%=      5-min Rain = 0
KHA3 201902Z 17016KT 38/17 A2986 RMK A01 T03750174  RH  031%=      5-min Rain = 0
KHA3 201903Z 16015KT 38/18 A2986 RMK A01 T03760181  RH  032%=      5-min Rain = 0
KHA3 201904Z 16016KT 38/18 A2986 RMK A01 T03780180  RH  031%=      5-min Rain = 0
KHA3 201905Z 15016KT 38/18 A2986 RMK A01 T03770178  RH  031%=      5-min Rain = 0
KHA3 201906Z 14013KT 37/18 A2986 RMK A01 T03740182  RH  032%=      5-min Rain = 0
KHA3 201907Z 15015KT 38/18 A2986 RMK A01 T03750179  RH  032%=      5-min Rain = 0
KHA3 201908Z 17015G21KT 37/18 A2986 RMK A01 T03740178  RH  032%=      5-min Rain = 0
KHA3 201909Z 18017KT 38/18 A2986 RMK A01 T03750175  RH  031%=      5-min Rain = 0
KHA3 201910Z 16014KT 37/18 A2986 RMK A01 T03730176  RH  031%=      5-min Rain = 0
KHA3 201911Z 15013KT 37/17 A2986 RMK A01 T03730173  RH  031%=      5-min Rain = 0
KHA3 201912Z 16011G18KT 37/18 A2986 RMK A01 T03730176  RH  032%=      5-min Rain = 0
KHA3 201913Z 16017KT 38/18 A2986 RMK A01 T03750177  RH  031%=      5-min Rain = 0
KHA3 201914Z 16015KT 38/17 A2986 RMK A01 T03760174  RH  031%=      5-min Rain = 0
KHA3 201915Z 17015KT 38/17 A2986 RMK A01 T03760173  RH  031%=      5-min Rain = 0
KHA3 201916Z 18011KT 38/17 A2986 RMK A01 T03760168  RH  029%=      5-min Rain = 0
KHA3 201917Z 17011KT 38/17 A2986 RMK A01 T03770169  RH  029%=      5-min Rain = 0
KHA3 201918Z 17011KT 38/18 A2986 RMK A01 T03810176  RH  030%=      5-min Rain = 0
KHA3 201919Z 15015KT 38/17 A2986 RMK A01 T03830173  RH  029%=      5-min Rain = 0
KHA3 201920Z 17012KT 38/17 A2986 RMK A01 T03790172  RH  030%=      5-min Rain = 0
KHA3 201921Z 17009KT 38/18 A2986 RMK A01 T03760178  RH  031%=      5-min Rain = 0
KHA3 201922Z 17016KT 38/18 A2985 RMK A01 T03780179  RH  031%=      5-min Rain = 0
KHA3 201923Z 17011KT 38/18 A2985 RMK A01 T03830181  RH  031%=      5-min Rain = 0
KHA3 201924Z 19015G21KT 39/18 A2985 RMK A01 T03850177  RH  030%=      5-min Rain = 0
KHA3 201925Z 17012KT 38/18 A2985 RMK A01 T03830177  RH  030%=      5-min Rain = 0
KHA3 201926Z 19012G19KT 38/18 A2985 RMK A01 T03820181  RH  031%=      5-min Rain = 0
KHA3 201927Z 17016G21KT 39/18 A2985 RMK A01 T03850175  RH  029%=      5-min Rain = 0
KHA3 201928Z 17015KT 38/18 A2985 RMK A01 T03840175  RH  030%=      5-min Rain = 0
KHA3 201929Z 18014G19KT 38/18 A2985 RMK A01 T03830176  RH  030%=      5-min Rain = 0
KHA3 201930Z 18013G20KT 38/17 A2985 RMK A01 T03810171  RH  029%=      5-min Rain = 0
KHA3 201931Z 17011G16KT 38/18 A2985 RMK A01 T03770176  RH  031%=      5-min Rain = 0
KHA3 201932Z 15017KT 38/18 A2985 RMK A01 T03820175  RH  030%=      5-min Rain = 0
KHA3 201933Z 15016KT 38/17 A2985 RMK A01 T03840167  RH  028%=      5-min Rain = 0
KHA3 201934Z 16015KT 38/17 A2985 RMK A01 T03840166  RH  028%=      5-min Rain = 0
KHA3 201935Z 18017G22KT 38/17 A2985 RMK A01 T03840173  RH  029%=      5-min Rain = 0
KHA3 201936Z 16016KT 38/17 A2985 RMK A01 T03830171  RH  029%=      5-min Rain = 0
KHA3 201937Z 16014KT 38/16 A2985 RMK A01 T03840164  RH  028%=      5-min Rain = 0
KHA3 201938Z 16015KT 38/17 A2985 RMK A01 T03830167  RH  028%=      5-min Rain = 0
KHA3 201939Z 17016KT 38/17 A2985 RMK A01 T03820172  RH  029%=      5-min Rain = 0
KHA3 201940Z 17014KT 38/17 A2985 RMK A01 T03810172  RH  029%=      5-min Rain = 0
KHA3 201941Z 17016KT 38/17 A2985 RMK A01 T03810171  RH  029%=      5-min Rain = 0
KHA3 201942Z 18015KT 38/17 A2985 RMK A01 T03820168  RH  028%=      5-min Rain = 0
KHA3 201943Z 17015KT 38/17 A2985 RMK A01 T03820168  RH  029%=      5-min Rain = 0
KHA3 201944Z 16016KT 38/18 A2985 RMK A01 T03800175  RH  030%=      5-min Rain = 0
KHA3 201945Z 16015KT 38/18 A2985 RMK A01 T03800177  RH  031%=      5-min Rain = 0
KHA3 201946Z 14015KT 38/18 A2985 RMK A01 T03820180  RH  031%=      5-min Rain = 0
KHA3 201947Z 15016KT 39/18 A2984 RMK A01 T03850176  RH  030%=      5-min Rain = 0
KHA3 201948Z 14014G19KT 38/18 A2984 RMK A01 T03820176  RH  030%=      5-min Rain = 0
KHA3 201949Z 15017KT 38/18 A2984 RMK A01 T03810176  RH  030%=      5-min Rain = 0
KHA3 201950Z 14013KT 38/18 A2984 RMK A01 T03800177  RH  031%=      5-min Rain = 0
KHA3 201951Z 17018KT 38/17 A2984 RMK A01 T03810172  RH  029%=      5-min Rain = 0
KHA3 201952Z 17018KT 38/17 A2984 RMK A01 T03820167  RH  028%=      5-min Rain = 0
KHA3 201953Z 15017G22KT 38/17 A2984 RMK A01 T03830166  RH  028%=      5-min Rain = 0
KHA3 201954Z 15017KT 38/16 A2984 RMK A01 T03830164  RH  028%=      5-min Rain = 0
KHA3 201955Z 15015KT 38/16 A2984 RMK A01 T03830161  RH  027%=      5-min Rain = 0
KHA3 201956Z 17015KT 38/16 A2984 RMK A01 T03830161  RH  027%=      5-min Rain = 0
KHA3 201957Z 18014KT 38/16 A2984 RMK A01 T03830159  RH  027%=      5-min Rain = 0
KHA3 201958Z 16013KT 39/17 A2984 RMK A01 T03850165  RH  028%=      5-min Rain = 0
KHA3 201959Z 15014KT 39/17 A2984 RMK A01 T03880167  RH  027%=      5-min Rain = 0
KHA3 202000Z 18016KT 39/17 A2984 RMK A01 T03870168  RH  028%=      5-min Rain = 0
KHA3 202001Z 16013KT 38/17 A2984 RMK A01 T03840171  RH  029%=      5-min Rain = 0
KHA3 202002Z 18012KT 38/17 A2984 RMK A01 T03840167  RH  028%=      5-min Rain = 0
KHA3 202003Z 18017G23KT 38/17 A2984 RMK A01 T03830168  RH  028%=      5-min Rain = 0
KHA3 202004Z 18016KT 38/16 A2984 RMK A01 T03840164  RH  028%=      5-min Rain = 0
KHA3 202005Z 19016KT 39/16 A2984 RMK A01 T03850163  RH  027%=      5-min Rain = 0
KHA3 202006Z 17013KT 38/16 A2984 RMK A01 T03840163  RH  027%=      5-min Rain = 0
KHA3 202007Z 17013KT 38/17 A2984 RMK A01 T03840166  RH  028%=      5-min Rain = 0
KHA3 202008Z 17014KT 39/17 A2984 RMK A01 T03850168  RH  028%=      5-min Rain = 0
KHA3 202009Z 18012KT 39/17 A2984 RMK A01 T03850168  RH  028%=      5-min Rain = 0
KHA3 202010Z 17015KT 39/17 A2984 RMK A01 T03890170  RH  028%=      5-min Rain = 0
KHA3 202011Z 16015KT 39/17 A2984 RMK A01 T03880172  RH  028%=      5-min Rain = 0
KHA3 202012Z 17013KT 39/17 A2984 RMK A01 T03870174  RH  029%=      5-min Rain = 0
KHA3 202013Z 17012KT 39/18 A2984 RMK A01 T03870177  RH  029%=      5-min Rain = 0
KHA3 202014Z 17011KT 39/18 A2984 RMK A01 T03870179  RH  030%=      5-min Rain = 0
KHA3 202015Z 16017G22KT 39/18 A2984 RMK A01 T03880179  RH  030%=      5-min Rain = 0
KHA3 202016Z 17019KT 39/17 A2984 RMK A01 T03880173  RH  029%=      5-min Rain = 0
KHA3 202017Z 17015KT 38/17 A2983 RMK A01 T03840172  RH  029%=      5-min Rain = 0
KHA3 202018Z 14013KT 38/18 A2984 RMK A01 T03830177  RH  030%=      5-min Rain = 0
KHA3 202019Z 15015G21KT 39/18 A2983 RMK A01 T03850176  RH  029%=      5-min Rain = 0
KHA3 202020Z 14011G16KT 39/18 A2983 RMK A01 T03850177  RH  030%=      5-min Rain = 0
KHA3 202021Z 15014KT 39/18 A2983 RMK A01 T03860180  RH  030%=      5-min Rain = 0
KHA3 202022Z 18015G20KT 39/18 A2983 RMK A01 T03880178  RH  029%=      5-min Rain = 0
KHA3 202023Z 18017KT 39/16 A2983 RMK A01 T03870164  RH  027%=      5-min Rain = 0
KHA3 202024Z 17018KT 39/16 A2983 RMK A01 T03880158  RH  026%=      5-min Rain = 0
KHA3 202025Z 17016G21KT 39/16 A2983 RMK A01 T03870162  RH  027%=      5-min Rain = 0
KHA3 202026Z 17015KT 39/16 A2983 RMK A01 T03870164  RH  027%=      5-min Rain = 0
KHA3 202027Z 18017KT 39/16 A2983 RMK A01 T03880163  RH  027%=      5-min Rain = 0
KHA3 202028Z 18015KT 39/17 A2983 RMK A01 T03870168  RH  028%=      5-min Rain = 0
KHA3 202029Z 17017KT 39/17 A2983 RMK A01 T03870169  RH  028%=      5-min Rain = 0
KHA3 202030Z 17014KT 39/17 A2983 RMK A01 T03870169  RH  028%=      5-min Rain = 0
KHA3 202031Z 20013KT 39/17 A2983 RMK A01 T03850166  RH  028%=      5-min Rain = 0
KHA3 202032Z 18014KT 39/17 A2983 RMK A01 T03850168  RH  028%=      5-min Rain = 0
KHA3 202033Z 19019KT 39/17 A2983 RMK A01 T03880167  RH  027%=      5-min Rain = 0
KHA3 202034Z 19017G22KT 39/17 A2983 RMK A01 T03880165  RH  027%=      5-min Rain = 0
KHA3 202035Z 19017KT 39/17 A2983 RMK A01 T03870167  RH  028%=      5-min Rain = 0
KHA3 202036Z 19016KT 39/16 A2983 RMK A01 T03870164  RH  027%=      5-min Rain = 0
KHA3 202037Z 18014KT 39/16 A2983 RMK A01 T03870163  RH  027%=      5-min Rain = 0
KHA3 202038Z 17016KT 39/17 A2983 RMK A01 T03870168  RH  028%=      5-min Rain = 0
KHA3 202039Z 18012KT 39/17 A2983 RMK A01 T03870167  RH  028%=      5-min Rain = 0
KHA3 202040Z 18013G18KT 39/17 A2983 RMK A01 T03860169  RH  028%=      5-min Rain = 0
KHA3 202041Z 18017G22KT 39/17 A2983 RMK A01 T03860171  RH  028%=      5-min Rain = 0
KHA3 202042Z 16016KT 39/17 A2983 RMK A01 T03880169  RH  028%=      5-min Rain = 0
KHA3 202043Z 15012KT 39/17 A2983 RMK A01 T03880170  RH  028%=      5-min Rain = 0
KHA3 202044Z 15010KT 39/17 A2983 RMK A01 T03880171  RH  028%=      5-min Rain = 0
KHA3 202045Z 17019KT 39/17 A2983 RMK A01 T03900171  RH  028%=      5-min Rain = 0
KHA3 202046Z 16015KT 39/17 A2983 RMK A01 T03940166  RH  027%=      5-min Rain = 0
KHA3 202047Z 16015G20KT 40/17 A2983 RMK A01 T03950166  RH  026%=      5-min Rain = 0
KHA3 202048Z 17017KT 40/16 A2983 RMK A01 T03960163  RH  026%=      5-min Rain = 0
KHA3 202049Z 17016G21KT 40/17 A2983 RMK A01 T03960165  RH  026%=      5-min Rain = 0
KHA3 202050Z 18014KT 40/17 A2983 RMK A01 T03950165  RH  026%=      5-min Rain = 0
KHA3 202051Z 17016G21KT 39/17 A2983 RMK A01 T03910165  RH  027%=      5-min Rain = 0
KHA3 202052Z 16014KT 39/17 A2983 RMK A01 T03890165  RH  027%=      5-min Rain = 0
KHA3 202053Z 16013KT 39/17 A2982 RMK A01 T03880167  RH  028%=      5-min Rain = 0
KHA3 202054Z 18015KT 39/17 A2982 RMK A01 T03890166  RH  027%=      5-min Rain = 0
KHA3 202055Z 18013KT 39/16 A2982 RMK A01 T03910164  RH  027%=      5-min Rain = 0
KHA3 202056Z 17011KT 39/17 A2982 RMK A01 T03900168  RH  027%=      5-min Rain = 0
KHA3 202057Z 16015KT 39/17 A2982 RMK A01 T03900170  RH  028%=      5-min Rain = 0
KHA3 202058Z 19017KT 39/17 A2982 RMK A01 T03920169  RH  027%=      5-min Rain = 0
KHA3 202059Z 20015KT 39/17 A2982 RMK A01 T03900166  RH  027%=      5-min Rain = 0
KHA3 202100Z 15016G22KT 39/17 A2982 RMK A01 T03890169  RH  028%=      5-min Rain = 0
KHA3 202101Z 14016KT 39/17 A2982 RMK A01 T03910169  RH  027%=      5-min Rain = 0
KHA3 202102Z 15017KT 39/17 A2982 RMK A01 T03890168  RH  027%=      5-min Rain = 0
KHA3 202103Z 16015KT 39/17 A2982 RMK A01 T03880172  RH  028%=      5-min Rain = 0
KHA3 202104Z 17018KT 39/16 A2982 RMK A01 T03920164  RH  026%=      5-min Rain = 0
KHA3 202105Z 17018KT 39/17 A2982 RMK A01 T03920167  RH  027%=      5-min Rain = 0
KHA3 202106Z 18017KT 39/17 A2982 RMK A01 T03890168  RH  027%=      5-min Rain = 0
KHA3 202107Z 18018KT 39/17 A2982 RMK A01 T03880171  RH  028%=      5-min Rain = 0
KHA3 202108Z 17018KT 39/17 A2982 RMK A01 T03870172  RH  029%=      5-min Rain = 0
KHA3 202109Z 18016KT 39/17 A2982 RMK A01 T03860173  RH  029%=      5-min Rain = 0
KHA3 202110Z 18015KT 39/17 A2982 RMK A01 T03870174  RH  029%=      5-min Rain = 0
KHA3 202111Z 17017KT 39/18 A2982 RMK A01 T03860177  RH  030%=      5-min Rain = 0
KHA3 202112Z 16016KT 39/18 A2982 RMK A01 T03870175  RH  029%=      5-min Rain = 0
KHA3 202113Z 15015KT 39/17 A2982 RMK A01 T03880174  RH  029%=      5-min Rain = 0
KHA3 202114Z 18015KT 39/18 A2982 RMK A01 T03900177  RH  029%=      5-min Rain = 0
KHA3 202115Z 18014KT 39/17 A2982 RMK A01 T03910173  RH  028%=      5-min Rain = 0
KHA3 202116Z 18012KT 39/18 A2982 RMK A01 T03910175  RH  028%=      5-min Rain = 0
KHA3 202117Z 17016KT 39/18 A2982 RMK A01 T03900176  RH  029%=      5-min Rain = 0
KHA3 202118Z 17016KT 39/18 A2982 RMK A01 T03910175  RH  028%=      5-min Rain = 0
KHA3 202119Z 16012KT 39/18 A2982 RMK A01 T03910177  RH  029%=      5-min Rain = 0
KHA3 202120Z 18013KT 39/18 A2982 RMK A01 T03920177  RH  029%=      5-min Rain = 0
KHA3 202121Z 18014KT 39/18 A2982 RMK A01 T03920175  RH  028%=      5-min Rain = 0
KHA3 202122Z 16017KT 39/18 A2982 RMK A01 T03900178  RH  029%=      5-min Rain = 0
KHA3 202123Z 15016KT 39/17 A2982 RMK A01 T03910174  RH  028%=      5-min Rain = 0
KHA3 202124Z 16016KT 39/18 A2982 RMK A01 T03910176  RH  029%=      5-min Rain = 0
KHA3 202125Z 14016KT 39/17 A2982 RMK A01 T03910172  RH  028%=      5-min Rain = 0
KHA3 202126Z 17016G21KT 39/17 A2982 RMK A01 T03900170  RH  028%=      5-min Rain = 0
KHA3 202127Z 17018KT 39/16 A2982 RMK A01 T03920160  RH  026%=      5-min Rain = 0
KHA3 202128Z 17018KT 39/16 A2982 RMK A01 T03910158  RH  026%=      5-min Rain = 0
KHA3 202129Z 17016KT 39/16 A2982 RMK A01 T03900162  RH  026%=      5-min Rain = 0
KHA3 202130Z 16013G18KT 39/16 A2982 RMK A01 T03890164  RH  027%=      5-min Rain = 0
KHA3 202131Z 16011KT 39/17 A2982 RMK A01 T03890165  RH  027%=      5-min Rain = 0
KHA3 202132Z 18012G17KT 39/17 A2982 RMK A01 T03890170  RH  028%=      5-min Rain = 0
KHA3 202133Z 17011KT 39/17 A2982 RMK A01 T03900172  RH  028%=      5-min Rain = 0
KHA3 202134Z 15010KT 39/18 A2981 RMK A01 T03890175  RH  029%=      5-min Rain = 0
KHA3 202135Z 15014KT 39/18 A2981 RMK A01 T03910177  RH  029%=      5-min Rain = 0
KHA3 202136Z 15015KT 39/18 A2981 RMK A01 T03900175  RH  029%=      5-min Rain = 0
KHA3 202137Z 14013KT 39/17 A2981 RMK A01 T03880174  RH  029%=      5-min Rain = 0
KHA3 202138Z 14013KT 39/17 A2981 RMK A01 T03870173  RH  029%=      5-min Rain = 0
KHA3 202139Z 14011KT 39/18 A2981 RMK A01 T03870175  RH  029%=      5-min Rain = 0
KHA3 202140Z 16016KT 39/17 A2981 RMK A01 T03880172  RH  028%=      5-min Rain = 0
KHA3 202141Z 18016KT 39/17 A2981 RMK A01 T03910169  RH  027%=      5-min Rain = 0
KHA3 202142Z 18013KT 39/17 A2981 RMK A01 T03910171  RH  028%=      5-min Rain = 0
KHA3 202143Z 17011KT 39/17 A2981 RMK A01 T03940173  RH  028%=      5-min Rain = 0
KHA3 202144Z 15016KT 40/17 A2981 RMK A01 T03950173  RH  028%=      5-min Rain = 0
KHA3 202145Z 16016KT 40/17 A2981 RMK A01 T03950172  RH  027%=      5-min Rain = 0
KHA3 202146Z 16017KT 40/17 A2981 RMK A01 T03950174  RH  028%=      5-min Rain = 0
KHA3 202147Z 16017KT 39/17 A2981 RMK A01 T03940173  RH  028%=      5-min Rain = 0
KHA3 202148Z 14015KT 39/17 A2981 RMK A01 T03910173  RH  028%=      5-min Rain = 0
KHA3 202149Z 15014KT 39/17 A2981 RMK A01 T03900174  RH  028%=      5-min Rain = 0
KHA3 202150Z 14012KT 39/18 A2981 RMK A01 T03900176  RH  029%=      5-min Rain = 0
KHA3 202151Z 14012KT 39/18 A2981 RMK A01 T03930177  RH  029%=      5-min Rain = 0
KHA3 202152Z 15015G20KT 39/18 A2981 RMK A01 T03940176  RH  028%=      5-min Rain = 0
KHA3 202153Z 15017KT 39/18 A298 RMK A01 T03930176  RH  028%=      5-min Rain = 0
KHA3 202154Z 15016KT 39/18 A2981 RMK A01 T03920176  RH  028%=      5-min Rain = 0
KHA3 202155Z 15015KT 39/18 A298 RMK A01 T03910175  RH  028%=      5-min Rain = 0
KHA3 202156Z 15014KT 39/18 A2981 RMK A01 T03920179  RH  029%=      5-min Rain = 0
KHA3 202157Z 16016KT 39/18 A2981 RMK A01 T03930178  RH  029%=      5-min Rain = 0
KHA3 202158Z 15016KT 39/17 A298 RMK A01 T03940173  RH  028%=      5-min Rain = 0
KHA3 202159Z 17017KT 39/17 A298 RMK A01 T03920169  RH  027%=      5-min Rain = 0
KHA3 202200Z 17016KT 39/17 A298 RMK A01 T03900168  RH  027%=      5-min Rain = 0
KHA3 202201Z 16015KT 39/17 A298 RMK A01 T03890171  RH  028%=      5-min Rain = 0
KHA3 202202Z 16010KT 39/17 A298 RMK A01 T03900172  RH  028%=      5-min Rain = 0
KHA3 202203Z 16017KT 39/17 A298 RMK A01 T03920174  RH  028%=      5-min Rain = 0
KHA3 202204Z 16015KT 39/18 A298 RMK A01 T03920176  RH  028%=      5-min Rain = 0
KHA3 202205Z 14015KT 39/17 A2981 RMK A01 T03920173  RH  028%=      5-min Rain = 0
KHA3 202206Z 15012KT 39/18 A298 RMK A01 T03890175  RH  029%=      5-min Rain = 0
KHA3 202207Z 16013G18KT 39/18 A298 RMK A01 T03890178  RH  029%=      5-min Rain = 0
KHA3 202208Z 16018G23KT 39/18 A298 RMK A01 T03910176  RH  029%=      5-min Rain = 0
KHA3 202209Z 15014KT 39/18 A298 RMK A01 T03900177  RH  029%=      5-min Rain = 0
KHA3 202210Z 16016G22KT 39/18 A298 RMK A01 T03900176  RH  029%=      5-min Rain = 0
KHA3 202211Z 16014KT 39/18 A298 RMK A01 T03900176  RH  029%=      5-min Rain = 0
KHA3 202212Z 16016KT 39/17 A298 RMK A01 T03910172  RH  028%=      5-min Rain = 0
KHA3 202213Z 16015KT 39/17 A298 RMK A01 T03890171  RH  028%=      5-min Rain = 0
KHA3 202214Z 16015KT 39/17 A298 RMK A01 T03890171  RH  028%=      5-min Rain = 0
KHA3 202215Z 16014KT 39/17 A298 RMK A01 T03890168  RH  027%=      5-min Rain = 0
KHA3 202216Z 15016KT 39/17 A298 RMK A01 T03880171  RH  028%=      5-min Rain = 0
KHA3 202217Z 16018KT 39/17 A298 RMK A01 T03870170  RH  028%=      5-min Rain = 0
KHA3 202218Z 16015KT 39/17 A298 RMK A01 T03870170  RH  028%=      5-min Rain = 0
KHA3 202219Z 15015KT 39/17 A298 RMK A01 T03870172  RH  029%=      5-min Rain = 0
KHA3 202220Z 16015KT 39/17 A298 RMK A01 T03880171  RH  028%=      5-min Rain = 0
KHA3 202221Z 16014KT 39/17 A298 RMK A01 T03880172  RH  028%=      5-min Rain = 0
KHA3 202222Z 15016KT 39/17 A298 RMK A01 T03890174  RH  028%=      5-min Rain = 0
KHA3 202223Z 15015KT 39/17 A298 RMK A01 T03900172  RH  028%=      5-min Rain = 0
KHA3 202224Z 14016KT 39/17 A298 RMK A01 T03900171  RH  028%=      5-min Rain = 0
KHA3 202225Z 14012KT 39/17 A298 RMK A01 T03890172  RH  028%=      5-min Rain = 0
KHA3 202226Z 14014KT 39/17 A298 RMK A01 T03890170  RH  028%=      5-min Rain = 0
KHA3 202227Z 14014KT 39/17 A298 RMK A01 T03890169  RH  028%=      5-min Rain = 0
KHA3 202228Z 13014KT 39/17 A298 RMK A01 T03880168  RH  028%=      5-min Rain = 0
KHA3 202229Z 15014KT 39/17 A298 RMK A01 T03870170  RH  028%=      5-min Rain = 0
KHA3 202230Z 16015KT 39/17 A298 RMK A01 T03880170  RH  028%=      5-min Rain = 0
KHA3 202231Z 16013KT 39/17 A298 RMK A01 T03890174  RH  029%=      5-min Rain = 0
KHA3 202232Z 16015KT 39/17 A298 RMK A01 T03890173  RH  028%=      5-min Rain = 0
KHA3 202233Z 16016KT 39/17 A298 RMK A01 T03880169  RH  028%=      5-min Rain = 0
KHA3 202234Z 15015KT 39/17 A2979 RMK A01 T03870170  RH  028%=      5-min Rain = 0
KHA3 202235Z 14013G20KT 39/17 A2979 RMK A01 T03870167  RH  028%=      5-min Rain = 0
KHA3 202236Z 17017KT 39/17 A2979 RMK A01 T03870171  RH  028%=      5-min Rain = 0
KHA3 202237Z 17017KT 39/17 A2979 RMK A01 T03880171  RH  028%=      5-min Rain = 0
KHA3 202238Z 16019G24KT 39/17 A2979 RMK A01 T03870171  RH  028%=      5-min Rain = 0
KHA3 202239Z 15018KT 39/17 A2979 RMK A01 T03860171  RH  028%=      5-min Rain = 0
KHA3 202240Z 16020KT 39/17 A2979 RMK A01 T03860170  RH  028%=      5-min Rain = 0
KHA3 202241Z 16018G23KT 39/17 A2979 RMK A01 T03860171  RH  029%=      5-min Rain = 0
KHA3 202242Z 15020KT 39/17 A2979 RMK A01 T03860171  RH  028%=      5-min Rain = 0
KHA3 202243Z 15018KT 39/17 A2979 RMK A01 T03860172  RH  029%=      5-min Rain = 0
KHA3 202244Z 16016KT 39/17 A2979 RMK A01 T03870171  RH  028%=      5-min Rain = 0
KHA3 202245Z 16015KT 39/17 A2979 RMK A01 T03860170  RH  028%=      5-min Rain = 0
KHA3 202246Z 16017KT 39/17 A2979 RMK A01 T03860171  RH  029%=      5-min Rain = 0
KHA3 202247Z 16015KT 39/17 A2979 RMK A01 T03860170  RH  028%=      5-min Rain = 0
KHA3 202248Z 15017KT 39/17 A2979 RMK A01 T03860170  RH  028%=      5-min Rain = 0
KHA3 202249Z 14016KT 39/17 A2979 RMK A01 T03860170  RH  028%=      5-min Rain = 0
KHA3 202250Z 16019G24KT 39/17 A2979 RMK A01 T03870171  RH  028%=      5-min Rain = 0
KHA3 202251Z 16019KT 39/17 A2979 RMK A01 T03860169  RH  028%=      5-min Rain = 0
KHA3 202252Z 16016KT 39/17 A2979 RMK A01 T03860171  RH  028%=      5-min Rain = 0
KHA3 202253Z 16017G22KT 39/17 A2979 RMK A01 T03870171  RH  028%=      5-min Rain = 0
KHA3 202254Z 17016KT 39/17 A2979 RMK A01 T03870171  RH  028%=      5-min Rain = 0
KHA3 202255Z 16015KT 39/17 A2979 RMK A01 T03870170  RH  028%=      5-min Rain = 0
KHA3 202256Z 15014KT 39/17 A2979 RMK A01 T03870172  RH  028%=      5-min Rain = 0
KHA3 202257Z 17015KT 39/17 A2979 RMK A01 T03870169  RH  028%=      5-min Rain = 0
KHA3 202258Z 16016KT 39/17 A2979 RMK A01 T03870171  RH  028%=      5-min Rain = 0
KHA3 202259Z 16015KT 39/17 A2979 RMK A01 T03870172  RH  029%=      5-min Rain = 0
KHA3 202300Z 16013KT 39/18 A2979 RMK A01 T03870175  RH  029%=      5-min Rain = 0
KHA3 202301Z 14014G22KT 39/18 A2979 RMK A01 T03890175  RH  029%=      5-min Rain = 0
KHA3 202302Z 16018KT 39/17 A2979 RMK A01 T03890172  RH  028%=      5-min Rain = 0
KHA3 202303Z 16019KT 39/17 A2979 RMK A01 T03880172  RH  028%=      5-min Rain = 0
KHA3 202304Z 16019KT 39/17 A2979 RMK A01 T03870169  RH  028%=      5-min Rain = 0
KHA3 202305Z 16017KT 39/17 A2979 RMK A01 T03850170  RH  029%=      5-min Rain = 0
KHA3 202306Z 15016G21KT 38/17 A2979 RMK A01 T03840172  RH  029%=      5-min Rain = 0
KHA3 202307Z 15018G23KT 38/17 A2979 RMK A01 T03840171  RH  029%=      5-min Rain = 0
KHA3 202308Z 15019G24KT 38/17 A2979 RMK A01 T03840172  RH  029%=      5-min Rain = 0
KHA3 202309Z 15019KT 38/17 A2979 RMK A01 T03840172  RH  029%=      5-min Rain = 0
KHA3 202310Z 15018KT 38/17 A2979 RMK A01 T03840170  RH  029%=      5-min Rain = 0
KHA3 202311Z 17017KT 38/17 A2979 RMK A01 T03830171  RH  029%=      5-min Rain = 0
KHA3 202312Z 17016KT 38/17 A2979 RMK A01 T03830171  RH  029%=      5-min Rain = 0
KHA3 202313Z 15012KT 38/17 A2979 RMK A01 T03830172  RH  029%=      5-min Rain = 0
KHA3 202314Z 15014KT 38/17 A2979 RMK A01 T03840171  RH  029%=      5-min Rain = 0
KHA3 202315Z 15014KT 38/17 A2979 RMK A01 T03840171  RH  029%=      5-min Rain = 0
KHA3 202316Z 16016KT 38/17 A2979 RMK A01 T03830174  RH  029%=      5-min Rain = 0
KHA3 202317Z 15015KT 39/18 A2979 RMK A01 T03850175  RH  029%=      5-min Rain = 0
KHA3 202318Z 15017KT 39/18 A2979 RMK A01 T03850175  RH  029%=      5-min Rain = 0
KHA3 202319Z 16017KT 39/17 A2979 RMK A01 T03860174  RH  029%=      5-min Rain = 0
KHA3 202320Z 15015KT 39/18 A2979 RMK A01 T03850175  RH  029%=      5-min Rain = 0
KHA3 202321Z 15017G22KT 39/18 A2979 RMK A01 T03850175  RH  029%=      5-min Rain = 0
KHA3 202322Z 15017G24KT 39/17 A2979 RMK A01 T03850173  RH  029%=      5-min Rain = 0
KHA3 202323Z 16018KT 38/17 A2979 RMK A01 T03830171  RH  029%=      5-min Rain = 0
KHA3 202324Z 16018KT 38/17 A2979 RMK A01 T03830171  RH  029%=      5-min Rain = 0
KHA3 202325Z 16017KT 38/17 A2979 RMK A01 T03820171  RH  029%=      5-min Rain = 0
KHA3 202326Z 16017KT 38/17 A2979 RMK A01 T03820172  RH  029%=      5-min Rain = 0
KHA3 202327Z 17017KT 38/17 A2979 RMK A01 T03820173  RH  029%=      5-min Rain = 0
KHA3 202328Z 15014KT 38/17 A2979 RMK A01 T03820173  RH  029%=      5-min Rain = 0
KHA3 202329Z 15017KT 38/17 A2979 RMK A01 T03820171  RH  029%=      5-min Rain = 0
KHA3 202330Z 15017KT 38/17 A2979 RMK A01 T03820169  RH  029%=      5-min Rain = 0
KHA3 202331Z 17016KT 38/17 A2978 RMK A01 T03820169  RH  029%=      5-min Rain = 0
KHA3 202332Z 15013G18KT 38/17 A2979 RMK A01 T03820168  RH  029%=      5-min Rain = 0
KHA3 202333Z 16014KT 38/17 A2979 RMK A01 T03820171  RH  029%=      5-min Rain = 0
KHA3 202334Z 15013KT 38/17 A2979 RMK A01 T03830171  RH  029%=      5-min Rain = 0
KHA3 202335Z 15018KT 38/17 A2979 RMK A01 T03840169  RH  028%=      5-min Rain = 0
KHA3 202336Z 16014G19KT 38/17 A2979 RMK A01 T03840170  RH  029%=      5-min Rain = 0
KHA3 202337Z 15013KT 38/17 A2979 RMK A01 T03830171  RH  029%=      5-min Rain = 0
KHA3 202338Z 15012KT 38/17 A2979 RMK A01 T03830171  RH  029%=      5-min Rain = 0
KHA3 202339Z 15016KT 38/17 A2979 RMK A01 T03840172  RH  029%=      5-min Rain = 0
KHA3 202340Z 17016KT 38/17 A2979 RMK A01 T03840172  RH  029%=      5-min Rain = 0
KHA3 202341Z 16015KT 38/17 A2979 RMK A01 T03840170  RH  029%=      5-min Rain = 0
KHA3 202342Z 16013KT 38/17 A2979 RMK A01 T03830172  RH  029%=      5-min Rain = 0
KHA3 202343Z 16013KT 38/17 A2979 RMK A01 T03830173  RH  029%=      5-min Rain = 0
KHA3 202344Z 16015KT 38/17 A2979 RMK A01 T03830170  RH  029%=      5-min Rain = 0
KHA3 202345Z 14016KT 38/17 A2979 RMK A01 T03820171  RH  029%=      5-min Rain = 0
KHA3 202346Z 14017KT 38/17 A2979 RMK A01 T03800170  RH  029%=      5-min Rain = 0
KHA3 202347Z 14015KT 38/17 A2979 RMK A01 T03790171  RH  030%=      5-min Rain = 0
KHA3 202348Z 14015KT 38/17 A2979 RMK A01 T03790172  RH  030%=      5-min Rain = 0
KHA3 202349Z 14015G20KT 38/17 A2979 RMK A01 T03780173  RH  030%=      5-min Rain = 0
KHA3 202350Z 14017KT 38/17 A2979 RMK A01 T03780172  RH  030%=      5-min Rain = 0
KHA3 202351Z 15015G20KT 38/17 A2979 RMK A01 T03780173  RH  030%=      5-min Rain = 0
KHA3 202352Z 17016KT 38/17 A2979 RMK A01 T03770173  RH  030%=      5-min Rain = 0
KHA3 202353Z 16014KT 38/17 A2979 RMK A01 T03780172  RH  030%=      5-min Rain = 0
KHA3 202354Z 16015KT 38/17 A2979 RMK A01 T03780174  RH  030%=      5-min Rain = 0
KHA3 202355Z 16018G24KT 38/17 A2979 RMK A01 T03790174  RH  030%=      5-min Rain = 0
KHA3 202356Z 15019KT 38/18 A2979 RMK A01 T03790175  RH  030%=      5-min Rain = 0
KHA3 202357Z 15017KT 38/18 A2979 RMK A01 T03780175  RH  030%=      5-min Rain = 0
KHA3 202358Z 16016KT 38/18 A2979 RMK A01 T03770175  RH  031%=      5-min Rain = 0
KHA3 202359Z 15015KT 38/17 A2979 RMK A01 T03770173  RH  030%=      5-min Rain = 0
KHA3 210000Z 15014KT 38/17 A2979 RMK A01 T03770174  RH  030%=      5-min Rain = 0
KHA3 210001Z 14016KT 38/17 A2979 RMK A01 T03770173  RH  030%=      5-min Rain = 0
KHA3 210002Z 15016KT 38/17 A2979 RMK A01 T03770173  RH  030%=      5-min Rain = 0
KHA3 210003Z 16013G21KT 38/18 A2979 RMK A01 T03770176  RH  031%=      5-min Rain = 0
KHA3 210004Z 16017KT 38/17 A2979 RMK A01 T03780172  RH  030%=      5-min Rain = 0
KHA3 210005Z 17018KT 38/17 A2979 RMK A01 T03780171  RH  030%=      5-min Rain = 0
KHA3 210006Z 15013KT 38/17 A2979 RMK A01 T03770172  RH  030%=      5-min Rain = 0
KHA3 210007Z 15014KT 38/17 A2979 RMK A01 T03770173  RH  030%=      5-min Rain = 0
KHA3 210008Z 15015KT 38/17 A2979 RMK A01 T03760172  RH  030%=      5-min Rain = 0
KHA3 210009Z 15013KT 38/17 A2979 RMK A01 T03770172  RH  030%=      5-min Rain = 0
KHA3 210010Z 14015KT 38/17 A2979 RMK A01 T03760171  RH  030%=      5-min Rain = 0
KHA3 210011Z 15016KT 38/17 A2979 RMK A01 T03760172  RH  030%=      5-min Rain = 0
KHA3 210012Z 15016KT 38/17 A2979 RMK A01 T03750172  RH  030%=      5-min Rain = 0
KHA3 210013Z 15017KT 38/17 A2979 RMK A01 T03750173  RH  031%=      5-min Rain = 0
KHA3 210014Z 15015KT 37/17 A2979 RMK A01 T03740172  RH  031%=      5-min Rain = 0
KHA3 210015Z 15017KT 37/17 A2979 RMK A01 T03740173  RH  031%=      5-min Rain = 0
KHA3 210016Z 15017KT 37/17 A2979 RMK A01 T03740172  RH  031%=      5-min Rain = 0
KHA3 210017Z 15014KT 37/17 A2979 RMK A01 T03730172  RH  031%=      5-min Rain = 0
KHA3 210018Z 16016KT 37/17 A2979 RMK A01 T03730173  RH  031%=      5-min Rain = 0
KHA3 210019Z 15012KT 37/17 A2979 RMK A01 T03730174  RH  031%=      5-min Rain = 0
KHA3 210020Z 15015KT 37/17 A2979 RMK A01 T03730173  RH  031%=      5-min Rain = 0
KHA3 210021Z 15011KT 37/17 A2979 RMK A01 T03740173  RH  031%=      5-min Rain = 0
KHA3 210022Z 15011KT 37/17 A2979 RMK A01 T03730174  RH  031%=      5-min Rain = 0
KHA3 210023Z 15013KT 37/17 A2979 RMK A01 T03730173  RH  031%=      5-min Rain = 0
KHA3 210024Z 15012KT 37/17 A2979 RMK A01 T03730172  RH  031%=      5-min Rain = 0
KHA3 210025Z 15014KT 37/17 A2979 RMK A01 T03730173  RH  031%=      5-min Rain = 0
KHA3 210026Z 16016KT 37/17 A2979 RMK A01 T03730172  RH  031%=      5-min Rain = 0
KHA3 210027Z 16016KT 37/17 A2979 RMK A01 T03720172  RH  031%=      5-min Rain = 0
KHA3 210028Z 15014KT 37/17 A2979 RMK A01 T03720172  RH  031%=      5-min Rain = 0
KHA3 210029Z 15014G19KT 37/17 A2979 RMK A01 T03720172  RH  031%=      5-min Rain = 0
KHA3 210030Z 15017KT 37/17 A2979 RMK A01 T03710171  RH  031%=      5-min Rain = 0
KHA3 210031Z 15016G21KT 37/17 A2979 RMK A01 T03710171  RH  031%=      5-min Rain = 0
KHA3 210032Z 15014KT 37/17 A298 RMK A01 T03700171  RH  031%=      5-min Rain = 0
KHA3 210033Z 15016KT 37/17 A2979 RMK A01 T03700171  RH  031%=      5-min Rain = 0
KHA3 210034Z 14013KT 37/17 A2979 RMK A01 T03690172  RH  031%=      5-min Rain = 0
KHA3 210035Z 14015G20KT 37/17 A2979 RMK A01 T03690172  RH  031%=      5-min Rain = 0
KHA3 210036Z 14016KT 37/17 A2979 RMK A01 T03680171  RH  031%=      5-min Rain = 0
KHA3 210037Z 14016G23KT 37/17 A2979 RMK A01 T03680171  RH  031%=      5-min Rain = 0
KHA3 210038Z 14016G21KT 37/17 A2979 RMK A01 T03670171  RH  031%=      5-min Rain = 0
KHA3 210039Z 15015KT 37/17 A2979 RMK A01 T03670173  RH  032%=      5-min Rain = 0
KHA3 210040Z 15015KT 37/17 A2979 RMK A01 T03670173  RH  032%=      5-min Rain = 0
KHA3 210041Z 15012KT 37/17 A2979 RMK A01 T03670174  RH  032%=      5-min Rain = 0
KHA3 210042Z 14011KT 37/18 A2979 RMK A01 T03660175  RH  033%=      5-min Rain = 0
KHA3 210043Z 14013KT 37/18 A2979 RMK A01 T03660175  RH  032%=      5-min Rain = 0
KHA3 210044Z 15012KT 37/18 A2979 RMK A01 T03650175  RH  033%=      5-min Rain = 0
KHA3 210045Z 14013KT 37/18 A2979 RMK A01 T03650175  RH  033%=      5-min Rain = 0
KHA3 210046Z 14016KT 37/17 A2979 RMK A01 T03650173  RH  032%=      5-min Rain = 0
KHA3 210047Z 15013KT 37/17 A2979 RMK A01 T03650174  RH  033%=      5-min Rain = 0
KHA3 210048Z 15013KT 36/18 A2979 RMK A01 T03640175  RH  033%=      5-min Rain = 0
KHA3 210049Z 15012G17KT 36/17 A298 RMK A01 T03630174  RH  033%=      5-min Rain = 0
KHA3 210050Z 15013KT 36/17 A298 RMK A01 T03630174  RH  033%=      5-min Rain = 0
KHA3 210051Z 14015KT 36/17 A298 RMK A01 T03630174  RH  033%=      5-min Rain = 0
KHA3 210052Z 14015KT 36/17 A298 RMK A01 T03620173  RH  033%=      5-min Rain = 0
KHA3 210053Z 15014KT 36/17 A298 RMK A01 T03620173  RH  033%=      5-min Rain = 0
KHA3 210054Z 15016KT 36/17 A298 RMK A01 T03620173  RH  033%=      5-min Rain = 0
KHA3 210055Z 14014KT 36/17 A298 RMK A01 T03610173  RH  033%=      5-min Rain = 0
KHA3 210056Z 15017KT 36/17 A298 RMK A01 T03610172  RH  033%=      5-min Rain = 0
KHA3 210057Z 14015KT 36/17 A298 RMK A01 T03610172  RH  033%=      5-min Rain = 0
KHA3 210058Z 15014KT 36/17 A298 RMK A01 T03610172  RH  033%=      5-min Rain = 0
KHA3 210059Z 14015KT 36/17 A298 RMK A01 T03600173  RH  033%=      5-min Rain = 0
KHA3 210100Z 15014KT 36/17 A298 RMK A01 T03600173  RH  033%=      5-min Rain = 0
KHA3 210101Z 15013KT 36/17 A298 RMK A01 T03590173  RH  033%=      5-min Rain = 0
KHA3 210102Z 14012KT 36/17 A298 RMK A01 T03590173  RH  034%=      5-min Rain = 0
KHA3 210103Z 15012KT 36/17 A298 RMK A01 T03580173  RH  034%=      5-min Rain = 0
KHA3 210104Z 14011KT 36/17 A298 RMK A01 T03580174  RH  034%=      5-min Rain = 0
KHA3 210105Z 15012KT 36/17 A298 RMK A01 T03570174  RH  034%=      5-min Rain = 0
KHA3 210106Z 15012KT 36/17 A298 RMK A01 T03560174  RH  034%=      5-min Rain = 0
KHA3 210107Z 15012KT 36/17 A298 RMK A01 T03550174  RH  034%=      5-min Rain = 0
KHA3 210108Z 15013KT 36/17 A298 RMK A01 T03550173  RH  034%=      5-min Rain = 0
KHA3 210109Z 15012KT 36/17 A298 RMK A01 T03550172  RH  034%=      5-min Rain = 0
KHA3 210110Z 15016KT 35/17 A298 RMK A01 T03540171  RH  034%=      5-min Rain = 0
KHA3 210111Z 15015G21KT 36/17 A298 RMK A01 T03550171  RH  034%=      5-min Rain = 0
KHA3 210112Z 14015G20KT 36/17 A298 RMK A01 T03550170  RH  034%=      5-min Rain = 0
KHA3 210113Z 14013KT 36/17 A298 RMK A01 T03550171  RH  034%=      5-min Rain = 0
KHA3 210114Z 14014KT 35/17 A298 RMK A01 T03540171  RH  034%=      5-min Rain = 0
KHA3 210115Z 14013KT 35/17 A298 RMK A01 T03540171  RH  034%=      5-min Rain = 0
KHA3 210116Z 14016KT 35/17 A298 RMK A01 T03530170  RH  034%=      5-min Rain = 0
KHA3 210117Z 14013KT 35/17 A298 RMK A01 T03530170  RH  034%=      5-min Rain = 0
KHA3 210118Z 14012KT 35/17 A298 RMK A01 T03530170  RH  034%=      5-min Rain = 0
KHA3 210119Z 14014G19KT 35/17 A298 RMK A01 T03520171  RH  034%=      5-min Rain = 0
KHA3 210120Z 14014KT 35/17 A298 RMK A01 T03510169  RH  034%=      5-min Rain = 0
KHA3 210121Z 14013KT 35/17 A298 RMK A01 T03510170  RH  034%=      5-min Rain = 0
KHA3 210122Z 14014KT 35/17 A298 RMK A01 T03510169  RH  034%=      5-min Rain = 0
KHA3 210123Z 14015G21KT 35/17 A298 RMK A01 T03510170  RH  034%=      5-min Rain = 0
KHA3 210124Z 15013G19KT 35/17 A298 RMK A01 T03510169  RH  034%=      5-min Rain = 0
KHA3 210125Z 14012KT 35/17 A298 RMK A01 T03500170  RH  034%=      5-min Rain = 0
KHA3 210126Z 14014KT 35/17 A298 RMK A01 T03500170  RH  034%=      5-min Rain = 0
KHA3 210127Z 14015G20KT 35/17 A298 RMK A01 T03490170  RH  034%=      5-min Rain = 0
KHA3 210128Z 13013KT 35/17 A298 RMK A01 T03490169  RH  034%=      5-min Rain = 0
KHA3 210129Z 14012KT 35/17 A298 RMK A01 T03490169  RH  034%=      5-min Rain = 0
KHA3 210130Z 14012KT 35/17 A298 RMK A01 T03480169  RH  035%=      5-min Rain = 0
KHA3 210131Z 14013KT 35/17 A298 RMK A01 T03480169  RH  035%=      5-min Rain = 0
KHA3 210132Z 14013KT 35/17 A298 RMK A01 T03480169  RH  035%=      5-min Rain = 0
KHA3 210133Z 14014KT 35/17 A298 RMK A01 T03470169  RH  035%=      5-min Rain = 0
KHA3 210134Z 14011KT 35/17 A298 RMK A01 T03470169  RH  035%=      5-min Rain = 0
KHA3 210135Z 14014KT 35/17 A298 RMK A01 T03470169  RH  035%=      5-min Rain = 0
KHA3 210136Z 14014KT 35/17 A298 RMK A01 T03460168  RH  035%=      5-min Rain = 0
KHA3 210137Z 14014KT 35/17 A298 RMK A01 T03460168  RH  035%=      5-min Rain = 0
KHA3 210138Z 14015KT 35/17 A298 RMK A01 T03460169  RH  035%=      5-min Rain = 0
KHA3 210139Z 14014KT 35/17 A298 RMK A01 T03460169  RH  035%=      5-min Rain = 0
KHA3 210140Z 14014KT 35/17 A298 RMK A01 T03450169  RH  035%=      5-min Rain = 0
KHA3 210141Z 15014KT 35/17 A298 RMK A01 T03450169  RH  035%=      5-min Rain = 0
KHA3 210142Z 14013KT 34/17 A298 RMK A01 T03440169  RH  035%=      5-min Rain = 0
KHA3 210143Z 14013KT 34/17 A298 RMK A01 T03440170  RH  036%=      5-min Rain = 0
KHA3 210144Z 14012KT 34/17 A2981 RMK A01 T03430170  RH  036%=      5-min Rain = 0
KHA3 210145Z 14012KT 34/17 A2981 RMK A01 T03430170  RH  036%=      5-min Rain = 0
KHA3 210146Z 14012KT 34/17 A2981 RMK A01 T03420170  RH  036%=      5-min Rain = 0
KHA3 210147Z 14011KT 34/17 A2981 RMK A01 T03420170  RH  036%=      5-min Rain = 0
KHA3 210148Z 14013KT 34/17 A2981 RMK A01 T03410171  RH  036%=      5-min Rain = 0
KHA3 210149Z 14013KT 34/17 A2981 RMK A01 T03410170  RH  036%=      5-min Rain = 0
KHA3 210150Z 13010KT 34/17 A2981 RMK A01 T03410171  RH  036%=      5-min Rain = 0
KHA3 210151Z 14013KT 34/17 A2981 RMK A01 T03400171  RH  037%=      5-min Rain = 0
KHA3 210152Z 14013KT 34/17 A2981 RMK A01 T03400171  RH  037%=      5-min Rain = 0
KHA3 210153Z 14013KT 34/17 A2981 RMK A01 T03400171  RH  037%=      5-min Rain = 0
KHA3 210154Z 14013KT 34/17 A2981 RMK A01 T03390170  RH  037%=      5-min Rain = 0
KHA3 210155Z 14013KT 34/17 A2981 RMK A01 T03400171  RH  037%=      5-min Rain = 0
KHA3 210156Z 14013KT 34/17 A2981 RMK A01 T03390170  RH  037%=      5-min Rain = 0
KHA3 210157Z 14013KT 34/17 A2981 RMK A01 T03390170  RH  037%=      5-min Rain = 0
KHA3 210158Z 14014KT 34/17 A2981 RMK A01 T03390170  RH  037%=      5-min Rain = 0
KHA3 210159Z 14012KT 34/17 A2981 RMK A01 T03380170  RH  037%=      5-min Rain = 0
KHA3 210200Z 14013KT 34/17 A2981 RMK A01 T03380170  RH  037%=      5-min Rain = 0
KHA3 210201Z 14013KT 34/17 A2981 RMK A01 T03380170  RH  037%=      5-min Rain = 0
KHA3 210202Z 14011KT 34/17 A2981 RMK A01 T03380170  RH  037%=      5-min Rain = 0
KHA3 210203Z 14010KT 34/17 A2981 RMK A01 T03370170  RH  037%=      5-min Rain = 0
KHA3 210204Z 13010KT 34/17 A2981 RMK A01 T03370170  RH  037%=      5-min Rain = 0
KHA3 210205Z 13011KT 34/17 A2981 RMK A01 T03360171  RH  037%=      5-min Rain = 0
KHA3 210206Z 13011KT 34/17 A2981 RMK A01 T03350170  RH  037%=      5-min Rain = 0
KHA3 210207Z 14012KT 34/17 A2981 RMK A01 T03350171  RH  038%=      5-min Rain = 0
KHA3 210208Z 14011G16KT 34/17 A2981 RMK A01 T03360171  RH  038%=      5-min Rain = 0
KHA3 210209Z 14011KT 34/17 A2981 RMK A01 T03350170  RH  038%=      5-min Rain = 0
KHA3 210210Z 14011KT 33/17 A2981 RMK A01 T03340170  RH  038%=      5-min Rain = 0
KHA3 210211Z 14011KT 33/17 A2981 RMK A01 T03340171  RH  038%=      5-min Rain = 0
KHA3 210212Z 14011KT 33/17 A2981 RMK A01 T03330170  RH  038%=      5-min Rain = 0
KHA3 210213Z 14012KT 33/17 A2981 RMK A01 T03330170  RH  038%=      5-min Rain = 0
KHA3 210214Z 14010KT 33/17 A2981 RMK A01 T03330171  RH  038%=      5-min Rain = 0
KHA3 210215Z 14010KT 33/17 A2981 RMK A01 T03320170  RH  038%=      5-min Rain = 0
KHA3 210216Z 14010KT 33/17 A2981 RMK A01 T03320170  RH  038%=      5-min Rain = 0
KHA3 210217Z 13010KT 33/17 A2981 RMK A01 T03310171  RH  038%=      5-min Rain = 0
KHA3 210218Z 14011KT 33/17 A2981 RMK A01 T03310171  RH  038%=      5-min Rain = 0
KHA3 210219Z 14010G15KT 33/17 A2981 RMK A01 T03300170  RH  039%=      5-min Rain = 0
KHA3 210220Z 13010KT 33/17 A2981 RMK A01 T03300170  RH  039%=      5-min Rain = 0
KHA3 210221Z 14011KT 33/17 A2982 RMK A01 T03300170  RH  039%=      5-min Rain = 0
KHA3 210222Z 13010KT 33/17 A2982 RMK A01 T03300170  RH  039%=      5-min Rain = 0
KHA3 210223Z 13011KT 33/17 A2982 RMK A01 T03300170  RH  039%=      5-min Rain = 0
KHA3 210224Z 13009KT 33/17 A2982 RMK A01 T03290170  RH  039%=      5-min Rain = 0
KHA3 210225Z 13010KT 33/17 A2982 RMK A01 T03280171  RH  039%=      5-min Rain = 0
KHA3 210226Z 13010KT 33/17 A2982 RMK A01 T03270170  RH  039%=      5-min Rain = 0
KHA3 210227Z 13011KT 33/17 A2982 RMK A01 T03270170  RH  039%=      5-min Rain = 0
KHA3 210228Z 13011KT 33/17 A2982 RMK A01 T03270171  RH  039%=      5-min Rain = 0
KHA3 210229Z 14009KT 33/17 A2982 RMK A01 T03270171  RH  039%=      5-min Rain = 0
KHA3 210230Z 13011KT 33/17 A2982 RMK A01 T03270172  RH  040%=      5-min Rain = 0
KHA3 210231Z 13010KT 33/17 A2982 RMK A01 T03260172  RH  040%=      5-min Rain = 0
KHA3 210232Z 13011KT 33/17 A2982 RMK A01 T03250172  RH  040%=      5-min Rain = 0
KHA3 210233Z 13012KT 32/17 A2982 RMK A01 T03240172  RH  040%=      5-min Rain = 0
KHA3 210234Z 13011KT 32/17 A2982 RMK A01 T03240172  RH  040%=      5-min Rain = 0
KHA3 210235Z 13010KT 32/17 A2982 RMK A01 T03240173  RH  041%=      5-min Rain = 0
KHA3 210236Z 13012KT 32/17 A2982 RMK A01 T03230173  RH  041%=      5-min Rain = 0
KHA3 210237Z 13010KT 32/17 A2982 RMK A01 T03230173  RH  041%=      5-min Rain = 0
KHA3 210238Z 13013KT 32/17 A2982 RMK A01 T03230173  RH  041%=      5-min Rain = 0
KHA3 210239Z 13013KT 32/17 A2982 RMK A01 T03240173  RH  041%=      5-min Rain = 0
KHA3 210240Z 13012KT 32/17 A2982 RMK A01 T03240174  RH  041%=      5-min Rain = 0
KHA3 210241Z 13011KT 32/17 A2982 RMK A01 T03240174  RH  041%=      5-min Rain = 0
KHA3 210242Z 14013KT 32/17 A2982 RMK A01 T03230174  RH  041%=      5-min Rain = 0
KHA3 210243Z 13012KT 32/17 A2982 RMK A01 T03230173  RH  041%=      5-min Rain = 0
KHA3 210244Z 13011KT 32/17 A2982 RMK A01 T03240174  RH  041%=      5-min Rain = 0
KHA3 210245Z 14011KT 32/17 A2982 RMK A01 T03230174  RH  041%=      5-min Rain = 0
KHA3 210246Z 13011KT 32/17 A2982 RMK A01 T03230174  RH  041%=      5-min Rain = 0
KHA3 210247Z 13013KT 32/17 A2982 RMK A01 T03220174  RH  041%=      5-min Rain = 0
KHA3 210248Z 14011KT 32/17 A2982 RMK A01 T03230174  RH  041%=      5-min Rain = 0
KHA3 210249Z 13013KT 32/17 A2982 RMK A01 T03230173  RH  041%=      5-min Rain = 0
KHA3 210250Z 13013KT 32/17 A2982 RMK A01 T03230174  RH  041%=      5-min Rain = 0
KHA3 210251Z 13012KT 32/17 A2982 RMK A01 T03230174  RH  041%=      5-min Rain = 0
KHA3 210252Z 14012KT 32/17 A2982 RMK A01 T03230174  RH  041%=      5-min Rain = 0
KHA3 210253Z 14013KT 32/17 A2982 RMK A01 T03220174  RH  041%=      5-min Rain = 0
KHA3 210254Z 14014KT 32/17 A2982 RMK A01 T03230173  RH  041%=      5-min Rain = 0
KHA3 210255Z 14011KT 32/17 A2983 RMK A01 T03230173  RH  041%=      5-min Rain = 0
KHA3 210256Z 14014KT 32/17 A2983 RMK A01 T03230174  RH  041%=      5-min Rain = 0
KHA3 210257Z 14014KT 32/17 A2983 RMK A01 T03220173  RH  041%=      5-min Rain = 0
KHA3 210258Z 14012KT 32/17 A2983 RMK A01 T03230173  RH  041%=      5-min Rain = 0
KHA3 210259Z 14013KT 32/17 A2983 RMK A01 T03230174  RH  041%=      5-min Rain = 0
KHA3 210300Z 14012KT 32/17 A2983 RMK A01 T03230174  RH  041%=      5-min Rain = 0
KHA3 210301Z 13013KT 32/17 A2983 RMK A01 T03230173  RH  041%=      5-min Rain = 0
KHA3 210302Z 14012KT 32/17 A2983 RMK A01 T03230173  RH  041%=      5-min Rain = 0
KHA3 210303Z 14013KT 32/17 A2983 RMK A01 T03220173  RH  041%=      5-min Rain = 0
KHA3 210304Z 13011KT 32/17 A2983 RMK A01 T03220173  RH  041%=      5-min Rain = 0
KHA3 210305Z 13011KT 32/17 A2983 RMK A01 T03210173  RH  041%=      5-min Rain = 0
KHA3 210306Z 14011KT 32/17 A2983 RMK A01 T03200173  RH  041%=      5-min Rain = 0
KHA3 210307Z 14010KT 32/17 A2983 RMK A01 T03200173  RH  041%=      5-min Rain = 0
KHA3 210308Z 13012KT 32/17 A2983 RMK A01 T03200173  RH  042%=      5-min Rain = 0
KHA3 210309Z 14011KT 32/17 A2983 RMK A01 T03200173  RH  042%=      5-min Rain = 0
KHA3 210310Z 14013KT 32/17 A2983 RMK A01 T03200173  RH  042%=      5-min Rain = 0
KHA3 210311Z 13013KT 32/17 A2984 RMK A01 T03200173  RH  041%=      5-min Rain = 0
KHA3 210312Z 13014G19KT 32/17 A2984 RMK A01 T03200172  RH  041%=      5-min Rain = 0
KHA3 210313Z 14011KT 32/17 A2984 RMK A01 T03210173  RH  041%=      5-min Rain = 0
KHA3 210314Z 14012KT 32/17 A2984 RMK A01 T03210173  RH  041%=      5-min Rain = 0
KHA3 210315Z 13011KT 32/17 A2984 RMK A01 T03200173  RH  041%=      5-min Rain = 0
KHA3 210316Z 13012KT 32/17 A2984 RMK A01 T03190173  RH  042%=      5-min Rain = 0
KHA3 210317Z 13010KT 32/17 A2984 RMK A01 T03190173  RH  042%=      5-min Rain = 0
KHA3 210318Z 13010KT 32/17 A2984 RMK A01 T03190173  RH  042%=      5-min Rain = 0
KHA3 210319Z 13011KT 32/17 A2984 RMK A01 T03180173  RH  042%=      5-min Rain = 0
KHA3 210320Z 13010KT 32/17 A2984 RMK A01 T03180173  RH  042%=      5-min Rain = 0
KHA3 210321Z 13011KT 32/17 A2984 RMK A01 T03160173  RH  042%=      5-min Rain = 0
KHA3 210322Z 13010KT 32/17 A2984 RMK A01 T03150173  RH  043%=      5-min Rain = 0
KHA3 210323Z 13009KT 32/17 A2984 RMK A01 T03150173  RH  043%=      5-min Rain = 0
KHA3 210324Z 13010KT 31/17 A2984 RMK A01 T03140173  RH  043%=      5-min Rain = 0
KHA3 210325Z 13010KT 31/17 A2984 RMK A01 T03130173  RH  043%=      5-min Rain = 0
KHA3 210326Z 13011KT 31/17 A2984 RMK A01 T03130173  RH  043%=      5-min Rain = 0
KHA3 210327Z 13010KT 31/17 A2984 RMK A01 T03120174  RH  043%=      5-min Rain = 0
KHA3 210328Z 13010KT 31/17 A2984 RMK A01 T03120174  RH  044%=      5-min Rain = 0
KHA3 210329Z 13010KT 31/17 A2984 RMK A01 T03120174  RH  044%=      5-min Rain = 0
KHA3 210330Z 13009KT 31/17 A2984 RMK A01 T03120174  RH  044%=      5-min Rain = 0
KHA3 210331Z 13009KT 31/18 A2984 RMK A01 T03120175  RH  044%=      5-min Rain = 0
KHA3 210332Z 13011KT 31/18 A2984 RMK A01 T03110175  RH  044%=      5-min Rain = 0
KHA3 210333Z 14012KT 31/17 A2984 RMK A01 T03100174  RH  044%=      5-min Rain = 0
KHA3 210334Z 14010KT 31/18 A2984 RMK A01 T03120175  RH  044%=      5-min Rain = 0
KHA3 210335Z 14009KT 31/18 A2984 RMK A01 T03120175  RH  044%=      5-min Rain = 0
KHA3 210336Z 13009KT 31/18 A2984 RMK A01 T03110175  RH  044%=      5-min Rain = 0
KHA3 210337Z 13012KT 31/18 A2984 RMK A01 T03110175  RH  044%=      5-min Rain = 0
KHA3 210338Z 14011KT 31/18 A2984 RMK A01 T03110175  RH  044%=      5-min Rain = 0
KHA3 210339Z 14011KT 31/18 A2984 RMK A01 T03110175  RH  044%=      5-min Rain = 0
KHA3 210340Z 14010KT 31/18 A2984 RMK A01 T03110175  RH  044%=      5-min Rain = 0
KHA3 210341Z 14011KT 31/18 A2984 RMK A01 T03120176  RH  044%=      5-min Rain = 0
KHA3 210342Z 14011KT 31/18 A2984 RMK A01 T03110175  RH  044%=      5-min Rain = 0
KHA3 210343Z 13011KT 31/18 A2985 RMK A01 T03100175  RH  044%=      5-min Rain = 0
KHA3 210344Z 13009KT 31/18 A2985 RMK A01 T03100176  RH  045%=      5-min Rain = 0
KHA3 210345Z 14010KT 31/18 A2985 RMK A01 T03100176  RH  045%=      5-min Rain = 0
KHA3 210346Z 13010KT 31/18 A2985 RMK A01 T03100176  RH  045%=      5-min Rain = 0
KHA3 210347Z 13011KT 31/18 A2985 RMK A01 T03100176  RH  045%=      5-min Rain = 0
KHA3 210348Z 14011KT 31/18 A2985 RMK A01 T03090176  RH  045%=      5-min Rain = 0
KHA3 210349Z 14009KT 31/18 A2985 RMK A01 T03090176  RH  045%=      5-min Rain = 0
KHA3 210350Z 14011KT 31/18 A2985 RMK A01 T03090176  RH  045%=      5-min Rain = 0
KHA3 210351Z 14011KT 31/18 A2985 RMK A01 T03080176  RH  045%=      5-min Rain = 0
KHA3 210352Z 14011KT 31/18 A2985 RMK A01 T03080176  RH  045%=      5-min Rain = 0
KHA3 210353Z 13011KT 31/18 A2985 RMK A01 T03080176  RH  045%=      5-min Rain = 0
KHA3 210354Z 14010KT 31/18 A2985 RMK A01 T03080176  RH  045%=      5-min Rain = 0
KHA3 210355Z 14013KT 31/18 A2985 RMK A01 T03080176  RH  045%=      5-min Rain = 0
KHA3 210356Z 14011KT 31/18 A2985 RMK A01 T03080176  RH  045%=      5-min Rain = 0
KHA3 210357Z 14013KT 31/18 A2985 RMK A01 T03080176  RH  045%=      5-min Rain = 0
KHA3 210358Z 14011KT 31/18 A2985 RMK A01 T03080176  RH  045%=      5-min Rain = 0
KHA3 210359Z 14011KT 31/18 A2985 RMK A01 T03080176  RH  045%=      5-min Rain = 0
KHA3 210400Z 14011KT 31/18 A2985 RMK A01 T03080176  RH  045%=      5-min Rain = 0
KHA3 210401Z 14012KT 31/18 A2985 RMK A01 T03070176  RH  046%=      5-min Rain = 0
KHA3 210402Z 14011KT 31/18 A2985 RMK A01 T03070177  RH  046%=      5-min Rain = 0
KHA3 210403Z 14010KT 31/18 A2985 RMK A01 T03070176  RH  046%=      5-min Rain = 0
KHA3 210404Z 14010KT 31/18 A2985 RMK A01 T03070177  RH  046%=      5-min Rain = 0
KHA3 210405Z 14010KT 31/18 A2985 RMK A01 T03060176  RH  046%=      5-min Rain = 0
KHA3 210406Z 13010KT 31/18 A2985 RMK A01 T03060177  RH  046%=      5-min Rain = 0
KHA3 210407Z 14012KT 31/18 A2985 RMK A01 T03050177  RH  046%=      5-min Rain = 0
KHA3 210408Z 14010KT 31/18 A2985 RMK A01 T03050176  RH  046%=      5-min Rain = 0
KHA3 210409Z 14010KT 31/18 A2986 RMK A01 T03050177  RH  046%=      5-min Rain = 0
KHA3 210410Z 14011KT 31/18 A2986 RMK A01 T03060177  RH  046%=      5-min Rain = 0
KHA3 210411Z 14011KT 31/18 A2986 RMK A01 T03060177  RH  046%=      5-min Rain = 0
KHA3 210412Z 14011KT 31/18 A2986 RMK A01 T03060177  RH  046%=      5-min Rain = 0
KHA3 210413Z 14011KT 31/18 A2986 RMK A01 T03060177  RH  046%=      5-min Rain = 0
KHA3 210414Z 14010KT 31/18 A2986 RMK A01 T03060177  RH  046%=      5-min Rain = 0
KHA3 210415Z 14009KT 31/18 A2986 RMK A01 T03050177  RH  046%=      5-min Rain = 0
KHA3 210416Z 14010G15KT 30/18 A2986 RMK A01 T03040177  RH  047%=      5-min Rain = 0
KHA3 210417Z 14011KT 30/18 A2986 RMK A01 T03030176  RH  047%=      5-min Rain = 0
KHA3 210418Z 14010KT 30/18 A2986 RMK A01 T03040176  RH  046%=      5-min Rain = 0
KHA3 210419Z 14010KT 30/18 A2986 RMK A01 T03040176  RH  046%=      5-min Rain = 0
KHA3 210420Z 14011KT 30/18 A2986 RMK A01 T03040176  RH  046%=      5-min Rain = 0
KHA3 210421Z 14011KT 30/18 A2986 RMK A01 T03040176  RH  046%=      5-min Rain = 0
KHA3 210422Z 14011KT 30/18 A2986 RMK A01 T03040177  RH  046%=      5-min Rain = 0
KHA3 210423Z 14011KT 30/18 A2986 RMK A01 T03040176  RH  046%=      5-min Rain = 0
KHA3 210424Z 14010KT 30/18 A2986 RMK A01 T03040177  RH  046%=      5-min Rain = 0
KHA3 210425Z 14010KT 30/18 A2986 RMK A01 T03030177  RH  047%=      5-min Rain = 0
KHA3 210426Z 14011KT 30/18 A2986 RMK A01 T03030177  RH  047%=      5-min Rain = 0
KHA3 210427Z 14010KT 30/18 A2986 RMK A01 T03020176  RH  047%=      5-min Rain = 0
KHA3 210428Z 14012KT 30/18 A2986 RMK A01 T03030176  RH  047%=      5-min Rain = 0
KHA3 210429Z 14012KT 30/18 A2986 RMK A01 T03030176  RH  047%=      5-min Rain = 0
KHA3 210430Z 14011KT 30/18 A2986 RMK A01 T03030176  RH  047%=      5-min Rain = 0
KHA3 210431Z 14010KT 30/18 A2986 RMK A01 T03030176  RH  047%=      5-min Rain = 0
KHA3 210432Z 14011KT 30/18 A2986 RMK A01 T03030176  RH  047%=      5-min Rain = 0
KHA3 210433Z 14010KT 30/18 A2986 RMK A01 T03030177  RH  047%=      5-min Rain = 0
KHA3 210434Z 14011KT 30/18 A2986 RMK A01 T03020176  RH  047%=      5-min Rain = 0
KHA3 210435Z 14012KT 30/18 A2986 RMK A01 T03020177  RH  047%=      5-min Rain = 0
KHA3 210436Z 14011KT 30/18 A2986 RMK A01 T03020176  RH  047%=      5-min Rain = 0
KHA3 210437Z 14011KT 30/18 A2986 RMK A01 T03020176  RH  047%=      5-min Rain = 0
KHA3 210438Z 14010KT 30/18 A2986 RMK A01 T03020176  RH  047%=      5-min Rain = 0
KHA3 210439Z 14010KT 30/18 A2986 RMK A01 T03010176  RH  047%=      5-min Rain = 0
KHA3 210440Z 14011KT 30/18 A2986 RMK A01 T03010176  RH  047%=      5-min Rain = 0
KHA3 210441Z 14011KT 30/18 A2986 RMK A01 T03010176  RH  047%=      5-min Rain = 0
KHA3 210442Z 14011KT 30/18 A2986 RMK A01 T03010176  RH  047%=      5-min Rain = 0
KHA3 210443Z 14012KT 30/18 A2986 RMK A01 T03020176  RH  047%=      5-min Rain = 0
KHA3 210444Z 14011KT 30/18 A2986 RMK A01 T03020175  RH  047%=      5-min Rain = 0
KHA3 210445Z 14011KT 30/18 A2986 RMK A01 T03020175  RH  047%=      5-min Rain = 0
KHA3 210446Z 14011KT 30/18 A2986 RMK A01 T03020176  RH  047%=      5-min Rain = 0
KHA3 210447Z 14011KT 30/18 A2986 RMK A01 T03020175  RH  047%=      5-min Rain = 0
KHA3 210448Z 15011KT 30/18 A2987 RMK A01 T03020176  RH  047%=      5-min Rain = 0
KHA3 210449Z 14010KT 30/18 A2987 RMK A01 T03010176  RH  047%=      5-min Rain = 0
KHA3 210450Z 14011KT 30/18 A2987 RMK A01 T03000176  RH  047%=      5-min Rain = 0
KHA3 210451Z 14014KT 30/18 A2986 RMK A01 T03000175  RH  047%=      5-min Rain = 0
KHA3 210452Z 14012KT 30/18 A2986 RMK A01 T03010175  RH  047%=      5-min Rain = 0
KHA3 210453Z 14012KT 30/18 A2986 RMK A01 T03010175  RH  047%=      5-min Rain = 0
KHA3 210454Z 15011KT 30/18 A2986 RMK A01 T03010175  RH  047%=      5-min Rain = 0
KHA3 210455Z 14011KT 30/18 A2986 RMK A01 T03000175  RH  047%=      5-min Rain = 0
KHA3 210456Z 14011KT 30/18 A2986 RMK A01 T02990175  RH  047%=      5-min Rain = 0
KHA3 210457Z 14012KT 30/17 A2986 RMK A01 T02990174  RH  047%=      5-min Rain = 0
KHA3 210458Z 14013KT 30/17 A2986 RMK A01 T02990174  RH  047%=      5-min Rain = 0
KHA3 210459Z 14012KT 30/17 A2986 RMK A01 T03000174  RH  047%=      5-min Rain = 0

Page generated in 0.122 seconds.